Observation data for Romero 11SSW on 07/03/2020      Previous  Date  Next       Current Mesonet Observations  Soil Data  Daily Summary Page  Observations in Plain Language
KBR1 030500Z 11008KT 24/15 A3011 RMK A01 T02370154  RH  060%=      5-min Rain = 0
KBR1 030501Z 11007KT 24/15 A3011 RMK A01 T02370154  RH  060%=      5-min Rain = 0
KBR1 030502Z 11007KT 24/15 A3011 RMK A01 T02370153  RH  060%=      5-min Rain = 0
KBR1 030503Z 11006KT 24/15 A3011 RMK A01 T02360153  RH  060%=      5-min Rain = 0
KBR1 030504Z 11006KT 24/15 A3011 RMK A01 T02350153  RH  060%=      5-min Rain = 0
KBR1 030505Z 11006KT 24/15 A3011 RMK A01 T02350153  RH  060%=      5-min Rain = 0
KBR1 030506Z 11006KT 24/15 A3011 RMK A01 T02350153  RH  060%=      5-min Rain = 0
KBR1 030507Z 10005KT 24/15 A3011 RMK A01 T02350153  RH  060%=      5-min Rain = 0
KBR1 030508Z 11006KT 23/15 A3011 RMK A01 T02340153  RH  060%=      5-min Rain = 0
KBR1 030509Z 11006KT 24/15 A3011 RMK A01 T02350153  RH  060%=      5-min Rain = 0
KBR1 030510Z 11005KT 24/15 A3011 RMK A01 T02350153  RH  060%=      5-min Rain = 0
KBR1 030511Z 11005KT 24/15 A3011 RMK A01 T02350153  RH  060%=      5-min Rain = 0
KBR1 030512Z 11005KT 24/15 A3011 RMK A01 T02350153  RH  060%=      5-min Rain = 0
KBR1 030513Z 11005KT 24/15 A3011 RMK A01 T02350154  RH  060%=      5-min Rain = 0
KBR1 030514Z 11004KT 24/15 A3011 RMK A01 T02350153  RH  060%=      5-min Rain = 0
KBR1 030515Z 11004KT 24/15 A3011 RMK A01 T02350153  RH  060%=      5-min Rain = 0
KBR1 030516Z 11003KT 24/15 A3011 RMK A01 T02350153  RH  060%=      5-min Rain = 0
KBR1 030517Z 10004KT 23/15 A3011 RMK A01 T02340153  RH  060%=      5-min Rain = 0
KBR1 030518Z 10003KT 23/15 A3011 RMK A01 T02340153  RH  060%=      5-min Rain = 0
KBR1 030519Z 11003KT 23/15 A3011 RMK A01 T02340153  RH  060%=      5-min Rain = 0
KBR1 030520Z 10003KT 23/15 A3011 RMK A01 T02340153  RH  061%=      5-min Rain = 0
KBR1 030521Z 10003KT 23/15 A3011 RMK A01 T02330153  RH  061%=      5-min Rain = 0
KBR1 030522Z 10003KT 23/15 A3011 RMK A01 T02330153  RH  061%=      5-min Rain = 0
KBR1 030523Z 09002KT 23/15 A3011 RMK A01 T02330153  RH  061%=      5-min Rain = 0
KBR1 030524Z 09002KT 23/15 A3011 RMK A01 T02330153  RH  061%=      5-min Rain = 0
KBR1 030525Z 08002KT 23/15 A3011 RMK A01 T02330153  RH  061%=      5-min Rain = 0
KBR1 030526Z 08002KT 23/15 A3011 RMK A01 T02330153  RH  061%=      5-min Rain = 0
KBR1 030527Z 08002KT 23/15 A3011 RMK A01 T02330153  RH  061%=      5-min Rain = 0
KBR1 030528Z 07002KT 23/15 A3011 RMK A01 T02330152  RH  061%=      5-min Rain = 0
KBR1 030529Z 06002KT 23/15 A3011 RMK A01 T02320153  RH  061%=      5-min Rain = 0
KBR1 030530Z 06002KT 23/15 A3011 RMK A01 T02320152  RH  061%=      5-min Rain = 0
KBR1 030531Z 06003KT 23/15 A3011 RMK A01 T02320152  RH  061%=      5-min Rain = 0
KBR1 030532Z 06003KT 23/15 A3011 RMK A01 T02310152  RH  061%=      5-min Rain = 0
KBR1 030533Z 06003KT 23/15 A3011 RMK A01 T02310152  RH  061%=      5-min Rain = 0
KBR1 030534Z 07003KT 23/15 A3011 RMK A01 T02300150  RH  061%=      5-min Rain = 0
KBR1 030535Z 07003KT 23/15 A3011 RMK A01 T02300150  RH  061%=      5-min Rain = 0
KBR1 030536Z 07003KT 23/15 A3011 RMK A01 T02290151  RH  061%=      5-min Rain = 0
KBR1 030537Z 08004KT 23/15 A3011 RMK A01 T02280149  RH  061%=      5-min Rain = 0
KBR1 030538Z 08004KT 23/15 A3011 RMK A01 T02270149  RH  062%=      5-min Rain = 0
KBR1 030539Z 08003KT 23/15 A3011 RMK A01 T02260149  RH  062%=      5-min Rain = 0
KBR1 030540Z 09004KT 23/15 A3011 RMK A01 T02250150  RH  062%=      5-min Rain = 0
KBR1 030541Z 09004KT 23/15 A3011 RMK A01 T02250149  RH  062%=      5-min Rain = 0
KBR1 030542Z 09004KT 23/15 A3011 RMK A01 T02250149  RH  062%=      5-min Rain = 0
KBR1 030543Z 09004KT 22/15 A3011 RMK A01 T02240148  RH  062%=      5-min Rain = 0
KBR1 030544Z 09004KT 22/15 A3011 RMK A01 T02230148  RH  063%=      5-min Rain = 0
KBR1 030545Z 10004KT 22/15 A3011 RMK A01 T02230149  RH  063%=      5-min Rain = 0
KBR1 030546Z 10003KT 22/15 A3011 RMK A01 T02230149  RH  063%=      5-min Rain = 0
KBR1 030547Z 11004KT 22/15 A3011 RMK A01 T02230149  RH  063%=      5-min Rain = 0
KBR1 030548Z 11004KT 22/15 A3011 RMK A01 T02230149  RH  063%=      5-min Rain = 0
KBR1 030549Z 11004KT 22/15 A3011 RMK A01 T02230149  RH  063%=      5-min Rain = 0
KBR1 030550Z 12005KT 22/15 A3011 RMK A01 T02240150  RH  063%=      5-min Rain = 0
KBR1 030551Z 12005KT 23/15 A3011 RMK A01 T02250150  RH  062%=      5-min Rain = 0
KBR1 030552Z 12005KT 23/15 A3011 RMK A01 T02260150  RH  062%=      5-min Rain = 0
KBR1 030553Z 12005KT 23/15 A3011 RMK A01 T02270150  RH  062%=      5-min Rain = 0
KBR1 030554Z 12005KT 23/15 A3011 RMK A01 T02270149  RH  062%=      5-min Rain = 0
KBR1 030555Z 13006KT 23/15 A3011 RMK A01 T02270150  RH  062%=      5-min Rain = 0
KBR1 030556Z 13006KT 23/15 A301 RMK A01 T02280150  RH  061%=      5-min Rain = 0
KBR1 030557Z 14006KT 23/15 A301 RMK A01 T02290150  RH  061%=      5-min Rain = 0
KBR1 030558Z 14006KT 23/15 A301 RMK A01 T02310150  RH  061%=      5-min Rain = 0
KBR1 030559Z 14007KT 23/15 A301 RMK A01 T02310150  RH  060%=      5-min Rain = 0
KBR1 030600Z 14006KT 23/15 A301 RMK A01 T02320150  RH  060%=      5-min Rain = 0
KBR1 030601Z 14008KT 23/15 A301 RMK A01 T02330150  RH  059%=      5-min Rain = 0
KBR1 030602Z 14007KT 24/15 A301 RMK A01 T02360151  RH  059%=      5-min Rain = 0
KBR1 030603Z 14008KT 24/15 A301 RMK A01 T02380151  RH  058%=      5-min Rain = 0
KBR1 030604Z 15010G15KT 24/15 A301 RMK A01 T02390151  RH  058%=      5-min Rain = 0
KBR1 030605Z 15008KT 24/15 A301 RMK A01 T02420153  RH  057%=      5-min Rain = 0
KBR1 030606Z 15008KT 24/15 A301 RMK A01 T02440152  RH  056%=      5-min Rain = 0
KBR1 030607Z 15007KT 24/15 A301 RMK A01 T02440152  RH  056%=      5-min Rain = 0
KBR1 030608Z 15010KT 24/15 A301 RMK A01 T02440152  RH  057%=      5-min Rain = 0
KBR1 030609Z 15008KT 25/15 A301 RMK A01 T02450154  RH  057%=      5-min Rain = 0
KBR1 030610Z 15008KT 25/15 A301 RMK A01 T02450153  RH  056%=      5-min Rain = 0
KBR1 030611Z 15008KT 25/15 A301 RMK A01 T02460153  RH  056%=      5-min Rain = 0
KBR1 030612Z 16009KT 25/15 A301 RMK A01 T02450153  RH  057%=      5-min Rain = 0
KBR1 030613Z 16008G13KT 25/15 A301 RMK A01 T02460154  RH  057%=      5-min Rain = 0
KBR1 030614Z 16011G16KT 25/15 A301 RMK A01 T02460154  RH  057%=      5-min Rain = 0
KBR1 030615Z 15012KT 25/16 A301 RMK A01 T02480156  RH  056%=      5-min Rain = 0
KBR1 030616Z 16012G17KT 25/16 A301 RMK A01 T02490156  RH  056%=      5-min Rain = 0
KBR1 030617Z 16014KT 25/16 A301 RMK A01 T02500157  RH  056%=      5-min Rain = 0
KBR1 030618Z 16012KT 25/16 A301 RMK A01 T02520158  RH  056%=      5-min Rain = 0
KBR1 030619Z 16011KT 25/16 A301 RMK A01 T02530158  RH  056%=      5-min Rain = 0
KBR1 030620Z 16012KT 25/16 A301 RMK A01 T02520158  RH  056%=      5-min Rain = 0
KBR1 030621Z 16012KT 25/16 A301 RMK A01 T02520158  RH  056%=      5-min Rain = 0
KBR1 030622Z 16013G18KT 25/16 A301 RMK A01 T02520158  RH  056%=      5-min Rain = 0
KBR1 030623Z 16012KT 25/16 A301 RMK A01 T02530159  RH  056%=      5-min Rain = 0
KBR1 030624Z 16010KT 25/16 A301 RMK A01 T02530158  RH  056%=      5-min Rain = 0
KBR1 030625Z 16009KT 25/16 A301 RMK A01 T02520159  RH  056%=      5-min Rain = 0
KBR1 030626Z 16010KT 25/16 A3009 RMK A01 T02520158  RH  056%=      5-min Rain = 0
KBR1 030627Z 16010KT 25/16 A301 RMK A01 T02520159  RH  056%=      5-min Rain = 0
KBR1 030628Z 16010KT 25/16 A301 RMK A01 T02520158  RH  056%=      5-min Rain = 0
KBR1 030629Z 17009KT 25/16 A301 RMK A01 T02520159  RH  056%=      5-min Rain = 0
KBR1 030630Z 18010KT 25/16 A301 RMK A01 T02510158  RH  056%=      5-min Rain = 0
KBR1 030631Z 17010KT 25/16 A301 RMK A01 T02510159  RH  057%=      5-min Rain = 0
KBR1 030632Z 17012KT 25/16 A301 RMK A01 T02510160  RH  057%=      5-min Rain = 0
KBR1 030633Z 17010KT 25/16 A301 RMK A01 T02510159  RH  057%=      5-min Rain = 0
KBR1 030634Z 17012KT 25/16 A301 RMK A01 T02510160  RH  057%=      5-min Rain = 0
KBR1 030635Z 17014KT 25/16 A301 RMK A01 T02510161  RH  057%=      5-min Rain = 0
KBR1 030636Z 17011KT 25/16 A3009 RMK A01 T02520161  RH  057%=      5-min Rain = 0
KBR1 030637Z 16011KT 25/16 A3009 RMK A01 T02510160  RH  057%=      5-min Rain = 0
KBR1 030638Z 17011KT 25/16 A3009 RMK A01 T02510161  RH  057%=      5-min Rain = 0
KBR1 030639Z 17012KT 25/16 A3009 RMK A01 T02510161  RH  057%=      5-min Rain = 0
KBR1 030640Z 17010KT 25/16 A3009 RMK A01 T02510161  RH  057%=      5-min Rain = 0
KBR1 030641Z 17010KT 25/16 A301 RMK A01 T02510161  RH  058%=      5-min Rain = 0
KBR1 030642Z 16010KT 25/16 A301 RMK A01 T02500162  RH  058%=      5-min Rain = 0
KBR1 030643Z 16010KT 25/16 A301 RMK A01 T02500161  RH  058%=      5-min Rain = 0
KBR1 030644Z 17011KT 25/16 A301 RMK A01 T02500162  RH  058%=      5-min Rain = 0
KBR1 030645Z 17010KT 25/16 A301 RMK A01 T02500162  RH  058%=      5-min Rain = 0
KBR1 030646Z 16009KT 25/16 A301 RMK A01 T02510162  RH  058%=      5-min Rain = 0
KBR1 030647Z 17010KT 25/16 A301 RMK A01 T02500162  RH  058%=      5-min Rain = 0
KBR1 030648Z 16009KT 25/16 A301 RMK A01 T02500162  RH  058%=      5-min Rain = 0
KBR1 030649Z 16008KT 25/16 A301 RMK A01 T02510162  RH  058%=      5-min Rain = 0
KBR1 030650Z 17008KT 25/16 A301 RMK A01 T02500162  RH  058%=      5-min Rain = 0
KBR1 030651Z 17007KT 25/16 A3009 RMK A01 T02500162  RH  058%=      5-min Rain = 0
KBR1 030652Z 17006KT 25/16 A3009 RMK A01 T02490161  RH  058%=      5-min Rain = 0
KBR1 030653Z 17005KT 25/16 A3009 RMK A01 T02480161  RH  058%=      5-min Rain = 0
KBR1 030654Z 17006KT 25/16 A3009 RMK A01 T02460160  RH  059%=      5-min Rain = 0
KBR1 030655Z 18005KT 25/16 A3009 RMK A01 T02460161  RH  059%=      5-min Rain = 0
KBR1 030656Z 19005KT 25/16 A3009 RMK A01 T02450161  RH  059%=      5-min Rain = 0
KBR1 030657Z 19006KT 25/16 A3009 RMK A01 T02450161  RH  059%=      5-min Rain = 0
KBR1 030658Z 19007KT 25/16 A3009 RMK A01 T02450161  RH  060%=      5-min Rain = 0
KBR1 030659Z 19006KT 25/16 A3009 RMK A01 T02450161  RH  060%=      5-min Rain = 0
KBR1 030700Z 19005KT 25/16 A3009 RMK A01 T02450162  RH  059%=      5-min Rain = 0
KBR1 030701Z 19006KT 25/16 A3009 RMK A01 T02450161  RH  060%=      5-min Rain = 0
KBR1 030702Z 19006KT 24/16 A3009 RMK A01 T02440161  RH  060%=      5-min Rain = 0
KBR1 030703Z 19005KT 24/16 A3009 RMK A01 T02430161  RH  060%=      5-min Rain = 0
KBR1 030704Z 19007KT 24/16 A3009 RMK A01 T02430162  RH  060%=      5-min Rain = 0
KBR1 030705Z 18009KT 24/16 A3009 RMK A01 T02430163  RH  061%=      5-min Rain = 0
KBR1 030706Z 18009KT 25/16 A3009 RMK A01 T02450164  RH  061%=      5-min Rain = 0
KBR1 030707Z 17011KT 25/17 A3009 RMK A01 T02460165  RH  060%=      5-min Rain = 0
KBR1 030708Z 17013KT 25/17 A3009 RMK A01 T02470166  RH  060%=      5-min Rain = 0
KBR1 030709Z 17011KT 25/17 A3009 RMK A01 T02490166  RH  060%=      5-min Rain = 0
KBR1 030710Z 18010KT 25/17 A3009 RMK A01 T02500166  RH  060%=      5-min Rain = 0
KBR1 030711Z 16010KT 25/17 A3009 RMK A01 T02490166  RH  060%=      5-min Rain = 0
KBR1 030712Z 17010KT 25/17 A3009 RMK A01 T02490166  RH  060%=      5-min Rain = 0
KBR1 030713Z 17010KT 25/17 A3009 RMK A01 T02490166  RH  060%=      5-min Rain = 0
KBR1 030714Z 17010KT 25/17 A3009 RMK A01 T02490166  RH  060%=      5-min Rain = 0
KBR1 030715Z 17010KT 25/17 A3009 RMK A01 T02490166  RH  060%=      5-min Rain = 0
KBR1 030716Z 17009KT 25/17 A3009 RMK A01 T02490166  RH  060%=      5-min Rain = 0
KBR1 030717Z 17008KT 25/17 A3009 RMK A01 T02480166  RH  060%=      5-min Rain = 0
KBR1 030718Z 17010KT 25/17 A3009 RMK A01 T02480166  RH  060%=      5-min Rain = 0
KBR1 030719Z 17008KT 25/17 A3009 RMK A01 T02480167  RH  061%=      5-min Rain = 0
KBR1 030720Z 17008KT 25/17 A3009 RMK A01 T02470166  RH  061%=      5-min Rain = 0
KBR1 030721Z 17008KT 25/17 A3009 RMK A01 T02470166  RH  061%=      5-min Rain = 0
KBR1 030722Z 17009KT 25/17 A3009 RMK A01 T02470166  RH  061%=      5-min Rain = 0
KBR1 030723Z 17008KT 25/17 A3009 RMK A01 T02470167  RH  061%=      5-min Rain = 0
KBR1 030724Z 18007KT 25/17 A3009 RMK A01 T02480167  RH  061%=      5-min Rain = 0
KBR1 030725Z 18009KT 25/17 A3009 RMK A01 T02480167  RH  061%=      5-min Rain = 0
KBR1 030726Z 17008KT 25/17 A3009 RMK A01 T02480167  RH  061%=      5-min Rain = 0
KBR1 030727Z 17009KT 25/17 A3009 RMK A01 T02480168  RH  061%=      5-min Rain = 0
KBR1 030728Z 18011KT 25/17 A3009 RMK A01 T02480168  RH  061%=      5-min Rain = 0
KBR1 030729Z 18011KT 25/17 A3009 RMK A01 T02490169  RH  061%=      5-min Rain = 0
KBR1 030730Z 17009KT 25/17 A3009 RMK A01 T02490168  RH  061%=      5-min Rain = 0
KBR1 030731Z 18008KT 25/17 A3009 RMK A01 T02490168  RH  061%=      5-min Rain = 0
KBR1 030732Z 17009KT 25/17 A3009 RMK A01 T02490168  RH  061%=      5-min Rain = 0
KBR1 030733Z 17008KT 25/17 A3009 RMK A01 T02480168  RH  061%=      5-min Rain = 0
KBR1 030734Z 18010KT 25/17 A3009 RMK A01 T02470169  RH  062%=      5-min Rain = 0
KBR1 030735Z 17012KT 25/17 A3009 RMK A01 T02480170  RH  062%=      5-min Rain = 0
KBR1 030736Z 17011KT 25/17 A3009 RMK A01 T02480170  RH  062%=      5-min Rain = 0
KBR1 030737Z 17010KT 25/17 A3009 RMK A01 T02480170  RH  062%=      5-min Rain = 0
KBR1 030738Z 17011KT 25/17 A3009 RMK A01 T02480170  RH  062%=      5-min Rain = 0
KBR1 030739Z 17009KT 25/17 A3009 RMK A01 T02480170  RH  062%=      5-min Rain = 0
KBR1 030740Z 17010KT 25/17 A3009 RMK A01 T02470170  RH  062%=      5-min Rain = 0
KBR1 030741Z 17010KT 25/17 A3009 RMK A01 T02470171  RH  062%=      5-min Rain = 0
KBR1 030742Z 17010KT 25/17 A3009 RMK A01 T02470171  RH  062%=      5-min Rain = 0
KBR1 030743Z 17012KT 25/17 A3009 RMK A01 T02480171  RH  062%=      5-min Rain = 0
KBR1 030744Z 17012KT 25/17 A3009 RMK A01 T02470171  RH  063%=      5-min Rain = 0
KBR1 030745Z 16013KT 25/17 A3009 RMK A01 T02470171  RH  063%=      5-min Rain = 0
KBR1 030746Z 17010KT 25/17 A3009 RMK A01 T02470171  RH  063%=      5-min Rain = 0
KBR1 030747Z 17011KT 25/17 A3009 RMK A01 T02470171  RH  063%=      5-min Rain = 0
KBR1 030748Z 17009KT 25/17 A3009 RMK A01 T02470172  RH  063%=      5-min Rain = 0
KBR1 030749Z 17011KT 25/17 A3009 RMK A01 T02470171  RH  063%=      5-min Rain = 0
KBR1 030750Z 17011KT 25/17 A3009 RMK A01 T02460171  RH  063%=      5-min Rain = 0
KBR1 030751Z 17010KT 25/17 A3009 RMK A01 T02460172  RH  063%=      5-min Rain = 0
KBR1 030752Z 17009KT 25/17 A3009 RMK A01 T02460172  RH  063%=      5-min Rain = 0
KBR1 030753Z 17010KT 25/17 A3009 RMK A01 T02460172  RH  063%=      5-min Rain = 0
KBR1 030754Z 17010KT 25/17 A3009 RMK A01 T02460172  RH  063%=      5-min Rain = 0
KBR1 030755Z 17010KT 25/17 A3009 RMK A01 T02450172  RH  064%=      5-min Rain = 0
KBR1 030756Z 18009KT 25/17 A3009 RMK A01 T02450172  RH  064%=      5-min Rain = 0
KBR1 030757Z 17008KT 24/17 A3009 RMK A01 T02440171  RH  064%=      5-min Rain = 0
KBR1 030758Z 18008KT 24/17 A3009 RMK A01 T02440171  RH  064%=      5-min Rain = 0
KBR1 030759Z 18010KT 24/17 A3009 RMK A01 T02440172  RH  064%=      5-min Rain = 0
KBR1 030800Z 18010KT 24/17 A3009 RMK A01 T02440172  RH  064%=      5-min Rain = 0
KBR1 030801Z 18009KT 24/17 A3009 RMK A01 T02440171  RH  064%=      5-min Rain = 0
KBR1 030802Z 18008KT 24/17 A3009 RMK A01 T02440172  RH  064%=      5-min Rain = 0
KBR1 030803Z 18006KT 24/17 A3009 RMK A01 T02430171  RH  064%=      5-min Rain = 0
KBR1 030804Z 18006KT 24/17 A301 RMK A01 T02420170  RH  064%=      5-min Rain = 0
KBR1 030805Z 19006KT 24/17 A3009 RMK A01 T02410170  RH  065%=      5-min Rain = 0
KBR1 030806Z 19005KT 24/17 A3009 RMK A01 T02410170  RH  065%=      5-min Rain = 0
KBR1 030807Z 19006KT 24/17 A3009 RMK A01 T02400169  RH  065%=      5-min Rain = 0
KBR1 030808Z 18007KT 24/17 A3009 RMK A01 T02390170  RH  065%=      5-min Rain = 0
KBR1 030809Z 17007KT 24/17 A3009 RMK A01 T02390171  RH  066%=      5-min Rain = 0
KBR1 030810Z 19007KT 24/17 A3009 RMK A01 T02400170  RH  065%=      5-min Rain = 0
KBR1 030811Z 19006KT 24/17 A3009 RMK A01 T02400170  RH  065%=      5-min Rain = 0
KBR1 030812Z 18005G10KT 24/17 A3009 RMK A01 T02400170  RH  065%=      5-min Rain = 0
KBR1 030813Z 19006KT 24/17 A3009 RMK A01 T02400170  RH  065%=      5-min Rain = 0
KBR1 030814Z 18007KT 24/17 A3009 RMK A01 T02400170  RH  065%=      5-min Rain = 0
KBR1 030815Z 18008KT 24/17 A3009 RMK A01 T02390170  RH  065%=      5-min Rain = 0
KBR1 030816Z 17007KT 24/17 A3009 RMK A01 T02390171  RH  066%=      5-min Rain = 0
KBR1 030817Z 17009KT 24/17 A3009 RMK A01 T02390171  RH  066%=      5-min Rain = 0
KBR1 030818Z 18009KT 24/17 A3009 RMK A01 T02390172  RH  066%=      5-min Rain = 0
KBR1 030819Z 18008KT 24/17 A3009 RMK A01 T02400172  RH  066%=      5-min Rain = 0
KBR1 030820Z 18007KT 24/17 A3009 RMK A01 T02400172  RH  066%=      5-min Rain = 0
KBR1 030821Z 19007KT 24/17 A3009 RMK A01 T02400172  RH  065%=      5-min Rain = 0
KBR1 030822Z 18006KT 24/17 A3009 RMK A01 T02400171  RH  066%=      5-min Rain = 0
KBR1 030823Z 18006KT 24/17 A3009 RMK A01 T02390171  RH  066%=      5-min Rain = 0
KBR1 030824Z 19006KT 24/17 A3009 RMK A01 T02380171  RH  066%=      5-min Rain = 0
KBR1 030825Z 19007KT 24/17 A3009 RMK A01 T02370171  RH  066%=      5-min Rain = 0
KBR1 030826Z 19007KT 24/17 A3009 RMK A01 T02370171  RH  067%=      5-min Rain = 0
KBR1 030827Z 19007KT 24/17 A3009 RMK A01 T02380172  RH  067%=      5-min Rain = 0
KBR1 030828Z 18007KT 24/17 A3009 RMK A01 T02380172  RH  066%=      5-min Rain = 0
KBR1 030829Z 19008KT 24/17 A3009 RMK A01 T02380172  RH  066%=      5-min Rain = 0
KBR1 030830Z 18007KT 24/17 A3009 RMK A01 T02380173  RH  067%=      5-min Rain = 0
KBR1 030831Z 18008KT 24/17 A3009 RMK A01 T02380172  RH  067%=      5-min Rain = 0
KBR1 030832Z 18007KT 24/17 A3009 RMK A01 T02390173  RH  066%=      5-min Rain = 0
KBR1 030833Z 19007KT 24/17 A3009 RMK A01 T02390173  RH  066%=      5-min Rain = 0
KBR1 030834Z 18008KT 24/17 A3009 RMK A01 T02390173  RH  066%=      5-min Rain = 0
KBR1 030835Z 18009KT 24/17 A301 RMK A01 T02390173  RH  066%=      5-min Rain = 0
KBR1 030836Z 18008KT 24/17 A3009 RMK A01 T02390173  RH  066%=      5-min Rain = 0
KBR1 030837Z 19008KT 24/17 A301 RMK A01 T02390173  RH  066%=      5-min Rain = 0
KBR1 030838Z 18007KT 24/17 A301 RMK A01 T02390173  RH  067%=      5-min Rain = 0
KBR1 030839Z 19007KT 24/17 A301 RMK A01 T02380173  RH  067%=      5-min Rain = 0
KBR1 030840Z 19007KT 24/17 A301 RMK A01 T02370172  RH  067%=      5-min Rain = 0
KBR1 030841Z 19006KT 24/17 A3009 RMK A01 T02360172  RH  067%=      5-min Rain = 0
KBR1 030842Z 19006KT 24/17 A3009 RMK A01 T02360172  RH  067%=      5-min Rain = 0
KBR1 030843Z 19006KT 24/17 A3009 RMK A01 T02350171  RH  067%=      5-min Rain = 0
KBR1 030844Z 19006KT 23/17 A3009 RMK A01 T02340171  RH  068%=      5-min Rain = 0
KBR1 030845Z 19006KT 23/17 A3009 RMK A01 T02330170  RH  068%=      5-min Rain = 0
KBR1 030846Z 20006KT 23/17 A3009 RMK A01 T02320170  RH  068%=      5-min Rain = 0
KBR1 030847Z 20006KT 23/17 A3009 RMK A01 T02310170  RH  068%=      5-min Rain = 0
KBR1 030848Z 20006KT 23/17 A3009 RMK A01 T02300169  RH  069%=      5-min Rain = 0
KBR1 030849Z 21006KT 23/17 A3009 RMK A01 T02290170  RH  069%=      5-min Rain = 0
KBR1 030850Z 21007KT 23/17 A3009 RMK A01 T02290170  RH  069%=      5-min Rain = 0
KBR1 030851Z 20008KT 23/17 A3009 RMK A01 T02290171  RH  070%=      5-min Rain = 0
KBR1 030852Z 21008KT 23/17 A3009 RMK A01 T02300171  RH  070%=      5-min Rain = 0
KBR1 030853Z 21007KT 23/17 A3009 RMK A01 T02310172  RH  069%=      5-min Rain = 0
KBR1 030854Z 20008KT 23/17 A3009 RMK A01 T02310171  RH  069%=      5-min Rain = 0
KBR1 030855Z 20007KT 23/17 A3009 RMK A01 T02310171  RH  069%=      5-min Rain = 0
KBR1 030856Z 20008KT 23/17 A3009 RMK A01 T02310171  RH  069%=      5-min Rain = 0
KBR1 030857Z 20008KT 23/17 A3009 RMK A01 T02310171  RH  069%=      5-min Rain = 0
KBR1 030858Z 20008KT 23/17 A3009 RMK A01 T02310171  RH  069%=      5-min Rain = 0
KBR1 030859Z 21008KT 23/17 A3008 RMK A01 T02300171  RH  069%=      5-min Rain = 0
KBR1 030900Z 21008KT 23/17 A3009 RMK A01 T02290171  RH  070%=      5-min Rain = 0
KBR1 030901Z 21008KT 23/17 A3009 RMK A01 T02280170  RH  070%=      5-min Rain = 0
KBR1 030902Z 21008KT 23/17 A3009 RMK A01 T02270170  RH  070%=      5-min Rain = 0
KBR1 030903Z 22008KT 23/17 A3008 RMK A01 T02270170  RH  070%=      5-min Rain = 0
KBR1 030904Z 22008KT 23/17 A3008 RMK A01 T02290172  RH  070%=      5-min Rain = 0
KBR1 030905Z 21009KT 23/17 A3008 RMK A01 T02300172  RH  070%=      5-min Rain = 0
KBR1 030906Z 22008KT 23/17 A3008 RMK A01 T02300171  RH  070%=      5-min Rain = 0
KBR1 030907Z 22008KT 23/17 A3008 RMK A01 T02300171  RH  070%=      5-min Rain = 0
KBR1 030908Z 22009KT 23/17 A3008 RMK A01 T02290171  RH  070%=      5-min Rain = 0
KBR1 030909Z 21009KT 23/17 A3008 RMK A01 T02300172  RH  070%=      5-min Rain = 0
KBR1 030910Z 21009KT 23/17 A3008 RMK A01 T02300171  RH  069%=      5-min Rain = 0
KBR1 030911Z 21009KT 23/17 A3008 RMK A01 T02300171  RH  069%=      5-min Rain = 0
KBR1 030912Z 21008KT 23/17 A3008 RMK A01 T02300172  RH  070%=      5-min Rain = 0
KBR1 030913Z 21008KT 23/17 A3008 RMK A01 T02300172  RH  070%=      5-min Rain = 0
KBR1 030914Z 21009KT 23/17 A3008 RMK A01 T02300172  RH  070%=      5-min Rain = 0
KBR1 030915Z 21007KT 23/17 A3008 RMK A01 T02310172  RH  070%=      5-min Rain = 0
KBR1 030916Z 22008KT 23/17 A3008 RMK A01 T02300172  RH  069%=      5-min Rain = 0
KBR1 030917Z 22008KT 23/17 A3008 RMK A01 T02290171  RH  070%=      5-min Rain = 0
KBR1 030918Z 22008KT 23/17 A3008 RMK A01 T02280171  RH  070%=      5-min Rain = 0
KBR1 030919Z 22008KT 23/17 A3008 RMK A01 T02280171  RH  070%=      5-min Rain = 0
KBR1 030920Z 22008KT 23/17 A3008 RMK A01 T02280172  RH  071%=      5-min Rain = 0
KBR1 030921Z 22008KT 23/17 A3009 RMK A01 T02280172  RH  071%=      5-min Rain = 0
KBR1 030922Z 23008KT 23/17 A3009 RMK A01 T02270172  RH  071%=      5-min Rain = 0
KBR1 030923Z 23008KT 23/17 A3009 RMK A01 T02270171  RH  071%=      5-min Rain = 0
KBR1 030924Z 24008KT 23/17 A3009 RMK A01 T02260171  RH  071%=      5-min Rain = 0
KBR1 030925Z 23007KT 23/17 A3009 RMK A01 T02260171  RH  071%=      5-min Rain = 0
KBR1 030926Z 23009KT 22/17 A3008 RMK A01 T02240170  RH  071%=      5-min Rain = 0
KBR1 030927Z 23008KT 22/17 A3009 RMK A01 T02230169  RH  071%=      5-min Rain = 0
KBR1 030928Z 23008KT 22/17 A3008 RMK A01 T02220169  RH  072%=      5-min Rain = 0
KBR1 030929Z 23007KT 22/17 A3008 RMK A01 T02210169  RH  072%=      5-min Rain = 0
KBR1 030930Z 23007KT 22/17 A3008 RMK A01 T02210169  RH  072%=      5-min Rain = 0
KBR1 030931Z 23007KT 22/17 A3008 RMK A01 T02200169  RH  073%=      5-min Rain = 0
KBR1 030932Z 23007KT 22/17 A3008 RMK A01 T02190169  RH  073%=      5-min Rain = 0
KBR1 030933Z 23007KT 22/17 A3008 RMK A01 T02190168  RH  073%=      5-min Rain = 0
KBR1 030934Z 23007KT 22/17 A3008 RMK A01 T02190169  RH  073%=      5-min Rain = 0
KBR1 030935Z 23007KT 22/17 A3008 RMK A01 T02190169  RH  073%=      5-min Rain = 0
KBR1 030936Z 22007KT 22/17 A3008 RMK A01 T02190169  RH  073%=      5-min Rain = 0
KBR1 030937Z 22007KT 22/17 A3008 RMK A01 T02190169  RH  073%=      5-min Rain = 0
KBR1 030938Z 22006KT 22/17 A3008 RMK A01 T02180169  RH  073%=      5-min Rain = 0
KBR1 030939Z 22007KT 22/17 A3008 RMK A01 T02180169  RH  074%=      5-min Rain = 0
KBR1 030940Z 22007KT 22/17 A3008 RMK A01 T02170168  RH  074%=      5-min Rain = 0
KBR1 030941Z 22007KT 22/17 A3008 RMK A01 T02170168  RH  074%=      5-min Rain = 0
KBR1 030942Z 22007KT 22/17 A3008 RMK A01 T02160168  RH  074%=      5-min Rain = 0
KBR1 030943Z 22007KT 22/17 A3008 RMK A01 T02160169  RH  074%=      5-min Rain = 0
KBR1 030944Z 22007KT 22/17 A3008 RMK A01 T02160168  RH  074%=      5-min Rain = 0
KBR1 030945Z 21007KT 22/17 A3008 RMK A01 T02150168  RH  075%=      5-min Rain = 0
KBR1 030946Z 22007KT 22/17 A3008 RMK A01 T02150169  RH  075%=      5-min Rain = 0
KBR1 030947Z 22007KT 22/17 A3008 RMK A01 T02150168  RH  075%=      5-min Rain = 0
KBR1 030948Z 21007KT 22/17 A3008 RMK A01 T02150169  RH  075%=      5-min Rain = 0
KBR1 030949Z 21007KT 22/17 A3008 RMK A01 T02150168  RH  075%=      5-min Rain = 0
KBR1 030950Z 21008KT 21/17 A3008 RMK A01 T02140169  RH  075%=      5-min Rain = 0
KBR1 030951Z 21007KT 21/17 A3008 RMK A01 T02140169  RH  075%=      5-min Rain = 0
KBR1 030952Z 21006KT 21/17 A3008 RMK A01 T02140169  RH  075%=      5-min Rain = 0
KBR1 030953Z 21007KT 21/17 A3008 RMK A01 T02140169  RH  075%=      5-min Rain = 0
KBR1 030954Z 22007KT 21/17 A3008 RMK A01 T02140169  RH  075%=      5-min Rain = 0
KBR1 030955Z 22007KT 21/17 A3008 RMK A01 T02140169  RH  075%=      5-min Rain = 0
KBR1 030956Z 23007KT 21/17 A3008 RMK A01 T02140169  RH  075%=      5-min Rain = 0
KBR1 030957Z 23006KT 21/17 A3008 RMK A01 T02140170  RH  076%=      5-min Rain = 0
KBR1 030958Z 23006KT 21/17 A3008 RMK A01 T02140169  RH  076%=      5-min Rain = 0
KBR1 030959Z 23005KT 21/17 A3008 RMK A01 T02140169  RH  076%=      5-min Rain = 0
KBR1 031000Z 23006KT 21/17 A3009 RMK A01 T02130169  RH  076%=      5-min Rain = 0
KBR1 031001Z 23006KT 21/17 A3009 RMK A01 T02130168  RH  076%=      5-min Rain = 0
KBR1 031002Z 23006KT 21/17 A3009 RMK A01 T02120168  RH  076%=      5-min Rain = 0
KBR1 031003Z 22006KT 21/17 A3009 RMK A01 T02120168  RH  076%=      5-min Rain = 0
KBR1 031004Z 22006KT 21/17 A3009 RMK A01 T02110168  RH  076%=      5-min Rain = 0
KBR1 031005Z 22006KT 21/17 A3009 RMK A01 T02110168  RH  076%=      5-min Rain = 0
KBR1 031006Z 23006KT 21/17 A3009 RMK A01 T02110168  RH  077%=      5-min Rain = 0
KBR1 031007Z 23006KT 21/17 A3009 RMK A01 T02100168  RH  077%=      5-min Rain = 0
KBR1 031008Z 24007KT 21/17 A3009 RMK A01 T02100167  RH  077%=      5-min Rain = 0
KBR1 031009Z 24007KT 21/17 A3009 RMK A01 T02090167  RH  077%=      5-min Rain = 0
KBR1 031010Z 23007KT 21/17 A3009 RMK A01 T02090167  RH  077%=      5-min Rain = 0
KBR1 031011Z 23007KT 21/17 A3009 RMK A01 T02080167  RH  077%=      5-min Rain = 0
KBR1 031012Z 23006KT 21/17 A3009 RMK A01 T02080167  RH  077%=      5-min Rain = 0
KBR1 031013Z 23005KT 21/17 A3009 RMK A01 T02070166  RH  077%=      5-min Rain = 0
KBR1 031014Z 22005KT 21/17 A3009 RMK A01 T02070166  RH  077%=      5-min Rain = 0
KBR1 031015Z 22005KT 21/17 A3009 RMK A01 T02060166  RH  078%=      5-min Rain = 0
KBR1 031016Z 22005KT 21/17 A3009 RMK A01 T02060166  RH  078%=      5-min Rain = 0
KBR1 031017Z 22005KT 21/17 A3009 RMK A01 T02050165  RH  078%=      5-min Rain = 0
KBR1 031018Z 21004KT 20/17 A3009 RMK A01 T02040165  RH  078%=      5-min Rain = 0
KBR1 031019Z 21005KT 20/17 A3009 RMK A01 T02040166  RH  079%=      5-min Rain = 0
KBR1 031020Z 21005KT 20/17 A3009 RMK A01 T02040166  RH  079%=      5-min Rain = 0
KBR1 031021Z 21005KT 20/17 A3009 RMK A01 T02040167  RH  079%=      5-min Rain = 0
KBR1 031022Z 21005KT 20/17 A3009 RMK A01 T02040167  RH  079%=      5-min Rain = 0
KBR1 031023Z 22005KT 20/17 A3009 RMK A01 T02040166  RH  079%=      5-min Rain = 0
KBR1 031024Z 22005KT 20/17 A3009 RMK A01 T02040165  RH  078%=      5-min Rain = 0
KBR1 031025Z 23005KT 20/17 A3009 RMK A01 T02030165  RH  079%=      5-min Rain = 0
KBR1 031026Z 23005KT 20/17 A3009 RMK A01 T02030165  RH  079%=      5-min Rain = 0
KBR1 031027Z 24005KT 20/17 A3009 RMK A01 T02020165  RH  079%=      5-min Rain = 0
KBR1 031028Z 24006KT 20/17 A3009 RMK A01 T02020165  RH  079%=      5-min Rain = 0
KBR1 031029Z 24005KT 20/17 A3009 RMK A01 T02020165  RH  079%=      5-min Rain = 0
KBR1 031030Z 24005KT 20/16 A3009 RMK A01 T02020164  RH  079%=      5-min Rain = 0
KBR1 031031Z 24005KT 20/16 A3009 RMK A01 T02020164  RH  079%=      5-min Rain = 0
KBR1 031032Z 24004KT 20/16 A3009 RMK A01 T02010164  RH  079%=      5-min Rain = 0
KBR1 031033Z 23005KT 20/16 A3009 RMK A01 T02010164  RH  079%=      5-min Rain = 0
KBR1 031034Z 23005KT 20/16 A301 RMK A01 T02010164  RH  080%=      5-min Rain = 0
KBR1 031035Z 23005KT 20/16 A301 RMK A01 T02010164  RH  079%=      5-min Rain = 0
KBR1 031036Z 24005KT 20/17 A301 RMK A01 T02010165  RH  080%=      5-min Rain = 0
KBR1 031037Z 23005KT 20/17 A301 RMK A01 T02010165  RH  080%=      5-min Rain = 0
KBR1 031038Z 23004KT 20/16 A301 RMK A01 T02010164  RH  080%=      5-min Rain = 0
KBR1 031039Z 22004KT 20/16 A301 RMK A01 T02000164  RH  079%=      5-min Rain = 0
KBR1 031040Z 21004KT 20/16 A301 RMK A01 T02000163  RH  079%=      5-min Rain = 0
KBR1 031041Z 22004KT 20/16 A301 RMK A01 T01990163  RH  080%=      5-min Rain = 0
KBR1 031042Z 23003KT 20/16 A301 RMK A01 T01990163  RH  080%=      5-min Rain = 0
KBR1 031043Z 23003KT 20/16 A301 RMK A01 T01980163  RH  080%=      5-min Rain = 0
KBR1 031044Z 23003KT 20/16 A301 RMK A01 T01980164  RH  081%=      5-min Rain = 0
KBR1 031045Z 23003KT 20/17 A301 RMK A01 T01980165  RH  081%=      5-min Rain = 0
KBR1 031046Z 22003KT 20/17 A301 RMK A01 T01980165  RH  081%=      5-min Rain = 0
KBR1 031047Z 23003KT 20/17 A301 RMK A01 T01980165  RH  081%=      5-min Rain = 0
KBR1 031048Z 23003KT 20/17 A301 RMK A01 T01980165  RH  081%=      5-min Rain = 0
KBR1 031049Z 24002KT 20/17 A301 RMK A01 T01980165  RH  081%=      5-min Rain = 0
KBR1 031050Z 26002KT 20/16 A301 RMK A01 T01980164  RH  081%=      5-min Rain = 0
KBR1 031051Z 27002KT 20/16 A301 RMK A01 T01980162  RH  080%=      5-min Rain = 0
KBR1 031052Z 28002KT 20/16 A301 RMK A01 T01970162  RH  080%=      5-min Rain = 0
KBR1 031053Z 28002KT 20/16 A301 RMK A01 T01970162  RH  080%=      5-min Rain = 0
KBR1 031054Z 28002KT 20/16 A301 RMK A01 T01970163  RH  080%=      5-min Rain = 0
KBR1 031055Z 29002KT 20/16 A301 RMK A01 T01970163  RH  080%=      5-min Rain = 0
KBR1 031056Z 30002KT 20/16 A301 RMK A01 T01970162  RH  080%=      5-min Rain = 0
KBR1 031057Z 30002KT 20/16 A301 RMK A01 T01970161  RH  080%=      5-min Rain = 0
KBR1 031058Z 30003KT 20/16 A301 RMK A01 T01970162  RH  080%=      5-min Rain = 0
KBR1 031059Z 28003KT 20/16 A301 RMK A01 T01970162  RH  080%=      5-min Rain = 0
KBR1 031100Z 28003KT 20/16 A301 RMK A01 T01970162  RH  080%=      5-min Rain = 0
KBR1 031101Z 27003KT 20/16 A301 RMK A01 T01970162  RH  080%=      5-min Rain = 0
KBR1 031102Z 27003KT 20/16 A301 RMK A01 T01980163  RH  080%=      5-min Rain = 0
KBR1 031103Z 27002KT 20/16 A301 RMK A01 T01990163  RH  080%=      5-min Rain = 0
KBR1 031104Z 28002KT 20/16 A301 RMK A01 T01990164  RH  080%=      5-min Rain = 0
KBR1 031105Z 27002KT 20/16 A301 RMK A01 T02000164  RH  080%=      5-min Rain = 0
KBR1 031106Z 27002KT 20/16 A301 RMK A01 T02000163  RH  079%=      5-min Rain = 0
KBR1 031107Z 28002KT 20/16 A301 RMK A01 T02000164  RH  079%=      5-min Rain = 0
KBR1 031108Z 28002KT 20/16 A301 RMK A01 T02000163  RH  079%=      5-min Rain = 0
KBR1 031109Z 28002KT 20/16 A301 RMK A01 T02000163  RH  079%=      5-min Rain = 0
KBR1 031110Z 28002KT 20/16 A301 RMK A01 T02000164  RH  080%=      5-min Rain = 0
KBR1 031111Z 28002KT 20/16 A301 RMK A01 T02000164  RH  080%=      5-min Rain = 0
KBR1 031112Z 29001KT 20/16 A301 RMK A01 T02000164  RH  079%=      5-min Rain = 0
KBR1 031113Z 29002KT 20/16 A301 RMK A01 T02000163  RH  079%=      5-min Rain = 0
KBR1 031114Z 29002KT 20/16 A301 RMK A01 T02000164  RH  079%=      5-min Rain = 0
KBR1 031115Z 29002KT 20/16 A301 RMK A01 T02000164  RH  079%=      5-min Rain = 0
KBR1 031116Z 30002KT 20/16 A301 RMK A01 T02010164  RH  079%=      5-min Rain = 0
KBR1 031117Z 30002KT 20/16 A301 RMK A01 T02010164  RH  079%=      5-min Rain = 0
KBR1 031118Z 29002KT 20/16 A301 RMK A01 T02010163  RH  079%=      5-min Rain = 0
KBR1 031119Z 29002KT 20/16 A301 RMK A01 T02010164  RH  079%=      5-min Rain = 0
KBR1 031120Z 29002KT 20/16 A301 RMK A01 T02010163  RH  079%=      5-min Rain = 0
KBR1 031121Z 30002KT 20/16 A301 RMK A01 T02010164  RH  079%=      5-min Rain = 0
KBR1 031122Z 30002KT 20/16 A301 RMK A01 T02010163  RH  079%=      5-min Rain = 0
KBR1 031123Z 29002KT 20/16 A301 RMK A01 T02010163  RH  079%=      5-min Rain = 0
KBR1 031124Z 29002KT 20/16 A3011 RMK A01 T02000163  RH  079%=      5-min Rain = 0
KBR1 031125Z 30002KT 20/16 A3011 RMK A01 T02000164  RH  080%=      5-min Rain = 0
KBR1 031126Z 30002KT 20/16 A3011 RMK A01 T02000164  RH  080%=      5-min Rain = 0
KBR1 031127Z 30001KT 20/17 A3011 RMK A01 T02000165  RH  080%=      5-min Rain = 0
KBR1 031128Z 31001KT 20/17 A3011 RMK A01 T02000165  RH  080%=      5-min Rain = 0
KBR1 031129Z 32000KT 20/17 A3011 RMK A01 T02000165  RH  080%=      5-min Rain = 0
KBR1 031130Z 34001KT 20/17 A3011 RMK A01 T02000166  RH  080%=      5-min Rain = 0
KBR1 031131Z 34001KT 20/17 A3011 RMK A01 T02010166  RH  081%=      5-min Rain = 0
KBR1 031132Z 34001KT 20/17 A3011 RMK A01 T02000166  RH  080%=      5-min Rain = 0
KBR1 031133Z 35001KT 20/17 A3011 RMK A01 T02010166  RH  080%=      5-min Rain = 0
KBR1 031134Z 36002KT 20/17 A3011 RMK A01 T02010166  RH  080%=      5-min Rain = 0
KBR1 031135Z 36002KT 20/17 A3011 RMK A01 T02020165  RH  079%=      5-min Rain = 0
KBR1 031136Z 36002KT 20/17 A3011 RMK A01 T02010165  RH  080%=      5-min Rain = 0
KBR1 031137Z 01002KT 20/16 A3011 RMK A01 T02000163  RH  079%=      5-min Rain = 0
KBR1 031138Z 02002KT 20/16 A3011 RMK A01 T01980161  RH  079%=      5-min Rain = 0
KBR1 031139Z 02002KT 20/16 A3011 RMK A01 T01960160  RH  080%=      5-min Rain = 0
KBR1 031140Z 03002KT 20/16 A3011 RMK A01 T01950160  RH  080%=      5-min Rain = 0
KBR1 031141Z 03002KT 19/16 A3011 RMK A01 T01940161  RH  081%=      5-min Rain = 0
KBR1 031142Z 03001KT 19/16 A3011 RMK A01 T01940161  RH  081%=      5-min Rain = 0
KBR1 031143Z 03001KT 19/16 A3011 RMK A01 T01940161  RH  081%=      5-min Rain = 0
KBR1 031144Z 02001KT 19/17 A3011 RMK A01 T01940165  RH  083%=      5-min Rain = 0
KBR1 031145Z 01001KT 20/17 A3011 RMK A01 T01960166  RH  083%=      5-min Rain = 0
KBR1 031146Z 34001KT 20/17 A3011 RMK A01 T01970166  RH  082%=      5-min Rain = 0
KBR1 031147Z 33000KT 20/17 A3011 RMK A01 T01980166  RH  082%=      5-min Rain = 0
KBR1 031148Z 33001KT 20/17 A3011 RMK A01 T01990166  RH  082%=      5-min Rain = 0
KBR1 031149Z 33001KT 20/17 A3011 RMK A01 T01990167  RH  081%=      5-min Rain = 0
KBR1 031150Z 32001KT 20/17 A3011 RMK A01 T02000167  RH  081%=      5-min Rain = 0
KBR1 031151Z 32002KT 20/17 A3011 RMK A01 T02010167  RH  081%=      5-min Rain = 0
KBR1 031152Z 32002KT 20/17 A3011 RMK A01 T02010166  RH  080%=      5-min Rain = 0
KBR1 031153Z 33002KT 20/17 A3011 RMK A01 T02010166  RH  080%=      5-min Rain = 0
KBR1 031154Z 31002KT 20/17 A3011 RMK A01 T02010165  RH  080%=      5-min Rain = 0
KBR1 031155Z 33002KT 20/17 A3011 RMK A01 T02000166  RH  081%=      5-min Rain = 0
KBR1 031156Z 34002KT 20/17 A3011 RMK A01 T02000166  RH  081%=      5-min Rain = 0
KBR1 031157Z 32002KT 20/16 A3011 RMK A01 T02000162  RH  079%=      5-min Rain = 0
KBR1 031158Z 33002KT 20/16 A3011 RMK A01 T01980157  RH  077%=      5-min Rain = 0
KBR1 031159Z 34003KT 20/15 A3011 RMK A01 T01960153  RH  076%=      5-min Rain = 0
KBR1 031200Z 35003KT 19/15 A3011 RMK A01 T01930154  RH  078%=      5-min Rain = 0
KBR1 031201Z 35003KT 19/16 A3012 RMK A01 T01920156  RH  080%=      5-min Rain = 0
KBR1 031202Z 01003KT 19/15 A3012 RMK A01 T01900154  RH  080%=      5-min Rain = 0
KBR1 031203Z 02003KT 19/15 A3012 RMK A01 T01890153  RH  080%=      5-min Rain = 0
KBR1 031204Z 02003KT 19/16 A3012 RMK A01 T01880155  RH  081%=      5-min Rain = 0
KBR1 031205Z 02003KT 19/16 A3012 RMK A01 T01880155  RH  081%=      5-min Rain = 0
KBR1 031206Z 02003KT 19/16 A3012 RMK A01 T01880157  RH  082%=      5-min Rain = 0
KBR1 031207Z 02003KT 19/16 A3012 RMK A01 T01880157  RH  082%=      5-min Rain = 0
KBR1 031208Z 02003KT 19/16 A3012 RMK A01 T01900159  RH  082%=      5-min Rain = 0
KBR1 031209Z 02004KT 19/16 A3012 RMK A01 T01910160  RH  082%=      5-min Rain = 0
KBR1 031210Z 02004KT 19/16 A3012 RMK A01 T01930162  RH  082%=      5-min Rain = 0
KBR1 031211Z 03003KT 20/16 A3012 RMK A01 T01950162  RH  082%=      5-min Rain = 0
KBR1 031212Z 03003KT 20/16 A3012 RMK A01 T01960163  RH  081%=      5-min Rain = 0
KBR1 031213Z 03003KT 20/16 A3012 RMK A01 T01970163  RH  081%=      5-min Rain = 0
KBR1 031214Z 03003KT 20/16 A3012 RMK A01 T01980164  RH  081%=      5-min Rain = 0
KBR1 031215Z 04003KT 20/17 A3012 RMK A01 T02000165  RH  080%=      5-min Rain = 0
KBR1 031216Z 00004KT 20/17 A3012 RMK A01 T02010165  RH  080%=      5-min Rain = 0
KBR1 031217Z 01002KT 20/17 A3012 RMK A01 T02030166  RH  079%=      5-min Rain = 0
KBR1 031218Z 01002KT 20/17 A3012 RMK A01 T02040166  RH  079%=      5-min Rain = 0
KBR1 031219Z 01002KT 21/17 A3012 RMK A01 T02050165  RH  078%=      5-min Rain = 0
KBR1 031220Z 03002KT 21/17 A3012 RMK A01 T02050165  RH  078%=      5-min Rain = 0
KBR1 031221Z 03003KT 21/17 A3012 RMK A01 T02050165  RH  077%=      5-min Rain = 0
KBR1 031222Z 02003KT 21/17 A3012 RMK A01 T02050165  RH  077%=      5-min Rain = 0
KBR1 031223Z 01003KT 21/16 A3012 RMK A01 T02050164  RH  077%=      5-min Rain = 0
KBR1 031224Z 01004KT 21/17 A3012 RMK A01 T02060165  RH  077%=      5-min Rain = 0
KBR1 031225Z 01004KT 21/17 A3012 RMK A01 T02070165  RH  077%=      5-min Rain = 0
KBR1 031226Z 02003KT 21/17 A3012 RMK A01 T02080165  RH  076%=      5-min Rain = 0
KBR1 031227Z 02003KT 21/17 A3012 RMK A01 T02090166  RH  076%=      5-min Rain = 0
KBR1 031228Z 01003KT 21/17 A3012 RMK A01 T02090166  RH  076%=      5-min Rain = 0
KBR1 031229Z 35002KT 21/17 A3012 RMK A01 T02100167  RH  076%=      5-min Rain = 0
KBR1 031230Z 35002KT 21/17 A3012 RMK A01 T02110167  RH  076%=      5-min Rain = 0
KBR1 031231Z 34003KT 21/17 A3012 RMK A01 T02110167  RH  076%=      5-min Rain = 0
KBR1 031232Z 34004KT 21/17 A3012 RMK A01 T02110166  RH  075%=      5-min Rain = 0
KBR1 031233Z 33004KT 21/17 A3012 RMK A01 T02120166  RH  075%=      5-min Rain = 0
KBR1 031234Z 32004KT 21/17 A3011 RMK A01 T02120165  RH  075%=      5-min Rain = 0
KBR1 031235Z 30004KT 21/16 A3011 RMK A01 T02120163  RH  074%=      5-min Rain = 0
KBR1 031236Z 30005KT 21/16 A3011 RMK A01 T02140162  RH  072%=      5-min Rain = 0
KBR1 031237Z 29005KT 22/16 A3011 RMK A01 T02170162  RH  071%=      5-min Rain = 0
KBR1 031238Z 30004KT 22/16 A3011 RMK A01 T02190162  RH  070%=      5-min Rain = 0
KBR1 031239Z 30003KT 22/16 A3011 RMK A01 T02200163  RH  070%=      5-min Rain = 0
KBR1 031240Z 28003KT 22/16 A3011 RMK A01 T02210162  RH  069%=      5-min Rain = 0
KBR1 031241Z 29003KT 22/16 A3012 RMK A01 T02220162  RH  069%=      5-min Rain = 0
KBR1 031242Z 29003KT 22/16 A3012 RMK A01 T02230163  RH  069%=      5-min Rain = 0
KBR1 031243Z 29003KT 22/16 A3012 RMK A01 T02230162  RH  068%=      5-min Rain = 0
KBR1 031244Z 29003KT 22/16 A3012 RMK A01 T02240162  RH  068%=      5-min Rain = 0
KBR1 031245Z 30003KT 23/16 A3012 RMK A01 T02250162  RH  068%=      5-min Rain = 0
KBR1 031246Z 30002KT 23/16 A3012 RMK A01 T02250162  RH  067%=      5-min Rain = 0
KBR1 031247Z 30003KT 23/16 A3012 RMK A01 T02260161  RH  067%=      5-min Rain = 0
KBR1 031248Z 31003KT 23/16 A3012 RMK A01 T02260162  RH  067%=      5-min Rain = 0
KBR1 031249Z 31003KT 23/16 A3012 RMK A01 T02270162  RH  067%=      5-min Rain = 0
KBR1 031250Z 31003KT 23/16 A3012 RMK A01 T02280161  RH  066%=      5-min Rain = 0
KBR1 031251Z 31003KT 23/16 A3012 RMK A01 T02280161  RH  066%=      5-min Rain = 0
KBR1 031252Z 32003KT 23/16 A3012 RMK A01 T02290161  RH  065%=      5-min Rain = 0
KBR1 031253Z 32002KT 23/16 A3012 RMK A01 T02290161  RH  065%=      5-min Rain = 0
KBR1 031254Z 32002KT 23/16 A3012 RMK A01 T02300161  RH  065%=      5-min Rain = 0
KBR1 031255Z 33002KT 23/16 A3012 RMK A01 T02310161  RH  065%=      5-min Rain = 0
KBR1 031256Z 30003KT 23/16 A3012 RMK A01 T02310161  RH  065%=      5-min Rain = 0
KBR1 031257Z 30002KT 23/16 A3012 RMK A01 T02320160  RH  064%=      5-min Rain = 0
KBR1 031258Z 30003KT 23/16 A3012 RMK A01 T02320160  RH  064%=      5-min Rain = 0
KBR1 031259Z 29003KT 23/16 A3012 RMK A01 T02330160  RH  064%=      5-min Rain = 0
KBR1 031300Z 30003KT 23/16 A3012 RMK A01 T02330160  RH  064%=      5-min Rain = 0
KBR1 031301Z 30003KT 23/16 A3012 RMK A01 T02340160  RH  063%=      5-min Rain = 0
KBR1 031302Z 31003KT 24/16 A3012 RMK A01 T02350160  RH  063%=      5-min Rain = 0
KBR1 031303Z 30003KT 24/16 A3012 RMK A01 T02360161  RH  063%=      5-min Rain = 0
KBR1 031304Z 29004KT 24/16 A3012 RMK A01 T02370160  RH  062%=      5-min Rain = 0
KBR1 031305Z 31003KT 24/16 A3012 RMK A01 T02380159  RH  062%=      5-min Rain = 0
KBR1 031306Z 30002KT 24/16 A3012 RMK A01 T02380159  RH  061%=      5-min Rain = 0
KBR1 031307Z 31003KT 24/16 A3012 RMK A01 T02390160  RH  061%=      5-min Rain = 0
KBR1 031308Z 32002KT 24/16 A3012 RMK A01 T02400160  RH  061%=      5-min Rain = 0
KBR1 031309Z 32004KT 24/16 A3012 RMK A01 T02400160  RH  061%=      5-min Rain = 0
KBR1 031310Z 33004KT 24/16 A3012 RMK A01 T02400160  RH  061%=      5-min Rain = 0
KBR1 031311Z 32003KT 24/16 A3012 RMK A01 T02410159  RH  060%=      5-min Rain = 0
KBR1 031312Z 30004KT 24/16 A3012 RMK A01 T02410159  RH  060%=      5-min Rain = 0
KBR1 031313Z 28004KT 24/16 A3012 RMK A01 T02420158  RH  059%=      5-min Rain = 0
KBR1 031314Z 30004KT 24/16 A3012 RMK A01 T02430158  RH  059%=      5-min Rain = 0
KBR1 031315Z 31004KT 25/16 A3012 RMK A01 T02450159  RH  059%=      5-min Rain = 0
KBR1 031316Z 31004KT 25/16 A3012 RMK A01 T02470159  RH  058%=      5-min Rain = 0
KBR1 031317Z 31003KT 25/16 A3012 RMK A01 T02470158  RH  058%=      5-min Rain = 0
KBR1 031318Z 31004KT 25/16 A3012 RMK A01 T02470158  RH  057%=      5-min Rain = 0
KBR1 031319Z 30004KT 25/16 A3012 RMK A01 T02480158  RH  057%=      5-min Rain = 0
KBR1 031320Z 30004KT 25/16 A3012 RMK A01 T02480158  RH  057%=      5-min Rain = 0
KBR1 031321Z 30005KT 25/16 A3012 RMK A01 T02480158  RH  057%=      5-min Rain = 0
KBR1 031322Z 30004KT 25/16 A3012 RMK A01 T02480158  RH  057%=      5-min Rain = 0
KBR1 031323Z 30005KT 25/16 A3012 RMK A01 T02480158  RH  057%=      5-min Rain = 0
KBR1 031324Z 30004KT 25/16 A3012 RMK A01 T02480158  RH  057%=      5-min Rain = 0
KBR1 031325Z 30004KT 25/16 A3012 RMK A01 T02480158  RH  057%=      5-min Rain = 0
KBR1 031326Z 29005KT 25/16 A3013 RMK A01 T02490158  RH  057%=      5-min Rain = 0
KBR1 031327Z 31004KT 25/16 A3013 RMK A01 T02500159  RH  057%=      5-min Rain = 0
KBR1 031328Z 30004KT 25/16 A3013 RMK A01 T02510159  RH  057%=      5-min Rain = 0
KBR1 031329Z 29004KT 25/16 A3013 RMK A01 T02510158  RH  056%=      5-min Rain = 0
KBR1 031330Z 28005KT 25/16 A3013 RMK A01 T02510159  RH  057%=      5-min Rain = 0
KBR1 031331Z 28006KT 25/16 A3013 RMK A01 T02530159  RH  056%=      5-min Rain = 0
KBR1 031332Z 29006KT 25/16 A3013 RMK A01 T02530159  RH  056%=      5-min Rain = 0
KBR1 031333Z 28004KT 25/16 A3013 RMK A01 T02530159  RH  056%=      5-min Rain = 0
KBR1 031334Z 29005KT 25/16 A3013 RMK A01 T02530160  RH  056%=      5-min Rain = 0
KBR1 031335Z 28006KT 25/16 A3013 RMK A01 T02540160  RH  056%=      5-min Rain = 0
KBR1 031336Z 27006KT 26/16 A3013 RMK A01 T02550160  RH  056%=      5-min Rain = 0
KBR1 031337Z 27005KT 26/16 A3013 RMK A01 T02550160  RH  056%=      5-min Rain = 0
KBR1 031338Z 27006KT 26/16 A3013 RMK A01 T02550160  RH  055%=      5-min Rain = 0
KBR1 031339Z 26005KT 26/16 A3013 RMK A01 T02560160  RH  055%=      5-min Rain = 0
KBR1 031340Z 26004KT 26/16 A3013 RMK A01 T02550160  RH  055%=      5-min Rain = 0
KBR1 031341Z 29003KT 26/16 A3013 RMK A01 T02550160  RH  055%=      5-min Rain = 0
KBR1 031342Z 30004KT 26/16 A3013 RMK A01 T02570160  RH  055%=      5-min Rain = 0
KBR1 031343Z 30004KT 26/16 A3013 RMK A01 T02570159  RH  055%=      5-min Rain = 0
KBR1 031344Z 29005KT 26/16 A3013 RMK A01 T02570160  RH  055%=      5-min Rain = 0
KBR1 031345Z 29003KT 26/16 A3013 RMK A01 T02570160  RH  055%=      5-min Rain = 0
KBR1 031346Z 30004KT 26/16 A3013 RMK A01 T02570160  RH  055%=      5-min Rain = 0
KBR1 031347Z 30004KT 26/16 A3013 RMK A01 T02580160  RH  055%=      5-min Rain = 0
KBR1 031348Z 30003KT 26/16 A3013 RMK A01 T02590160  RH  054%=      5-min Rain = 0
KBR1 031349Z 29005KT 26/16 A3013 RMK A01 T02600160  RH  054%=      5-min Rain = 0
KBR1 031350Z 30004KT 26/16 A3013 RMK A01 T02600160  RH  054%=      5-min Rain = 0
KBR1 031351Z 30006KT 26/16 A3013 RMK A01 T02620161  RH  054%=      5-min Rain = 0
KBR1 031352Z 30006KT 26/16 A3013 RMK A01 T02640160  RH  053%=      5-min Rain = 0
KBR1 031353Z 30006KT 26/16 A3013 RMK A01 T02640160  RH  053%=      5-min Rain = 0
KBR1 031354Z 29006KT 27/16 A3013 RMK A01 T02650160  RH  052%=      5-min Rain = 0
KBR1 031355Z 28007KT 27/16 A3013 RMK A01 T02660160  RH  052%=      5-min Rain = 0
KBR1 031356Z 27006KT 27/16 A3013 RMK A01 T02680160  RH  052%=      5-min Rain = 0
KBR1 031357Z 27005KT 27/16 A3013 RMK A01 T02700160  RH  051%=      5-min Rain = 0
KBR1 031358Z 26005KT 27/16 A3013 RMK A01 T02700160  RH  051%=      5-min Rain = 0
KBR1 031359Z 26006KT 27/16 A3013 RMK A01 T02700160  RH  051%=      5-min Rain = 0
KBR1 031400Z 24005KT 27/16 A3013 RMK A01 T02700159  RH  051%=      5-min Rain = 0
KBR1 031401Z 25006KT 27/16 A3013 RMK A01 T02700159  RH  051%=      5-min Rain = 0
KBR1 031402Z 26004KT 27/16 A3013 RMK A01 T02700159  RH  051%=      5-min Rain = 0
KBR1 031403Z 24004KT 27/16 A3013 RMK A01 T02700159  RH  051%=      5-min Rain = 0
KBR1 031404Z 23006KT 27/16 A3013 RMK A01 T02720156  RH  049%=      5-min Rain = 0
KBR1 031405Z 23005KT 27/16 A3013 RMK A01 T02720155  RH  049%=      5-min Rain = 0
KBR1 031406Z 24004KT 27/16 A3014 RMK A01 T02720155  RH  049%=      5-min Rain = 0
KBR1 031407Z 24006KT 27/16 A3014 RMK A01 T02740155  RH  048%=      5-min Rain = 0
KBR1 031408Z 24005KT 28/15 A3014 RMK A01 T02750153  RH  047%=      5-min Rain = 0
KBR1 031409Z 21005KT 28/15 A3014 RMK A01 T02760153  RH  047%=      5-min Rain = 0
KBR1 031410Z 20006KT 28/15 A3014 RMK A01 T02770153  RH  047%=      5-min Rain = 0
KBR1 031411Z 22006KT 28/15 A3014 RMK A01 T02760153  RH  047%=      5-min Rain = 0
KBR1 031412Z 28004KT 28/15 A3014 RMK A01 T02770154  RH  047%=      5-min Rain = 0
KBR1 031413Z 30002KT 28/15 A3014 RMK A01 T02780154  RH  047%=      5-min Rain = 0
KBR1 031414Z 28001KT 28/15 A3014 RMK A01 T02780154  RH  047%=      5-min Rain = 0
KBR1 031415Z 22002KT 28/16 A3014 RMK A01 T02780155  RH  047%=      5-min Rain = 0
KBR1 031416Z 27002KT 28/16 A3015 RMK A01 T02800155  RH  046%=      5-min Rain = 0
KBR1 031417Z 26003KT 28/16 A3015 RMK A01 T02800155  RH  047%=      5-min Rain = 0
KBR1 031418Z 25002KT 28/16 A3015 RMK A01 T02790155  RH  047%=      5-min Rain = 0
KBR1 031419Z 25003KT 28/16 A3015 RMK A01 T02790155  RH  047%=      5-min Rain = 0
KBR1 031420Z 25003KT 28/15 A3015 RMK A01 T02780154  RH  047%=      5-min Rain = 0
KBR1 031421Z 27003KT 28/16 A3015 RMK A01 T02780155  RH  047%=      5-min Rain = 0
KBR1 031422Z 28004KT 28/16 A3015 RMK A01 T02770155  RH  047%=      5-min Rain = 0
KBR1 031423Z 23003KT 28/16 A3015 RMK A01 T02770155  RH  047%=      5-min Rain = 0
KBR1 031424Z 17003KT 28/16 A3015 RMK A01 T02790156  RH  047%=      5-min Rain = 0
KBR1 031425Z 16003KT 28/16 A3015 RMK A01 T02810155  RH  046%=      5-min Rain = 0
KBR1 031426Z 18004KT 28/16 A3015 RMK A01 T02820155  RH  046%=      5-min Rain = 0
KBR1 031427Z 17004KT 28/16 A3015 RMK A01 T02820156  RH  046%=      5-min Rain = 0
KBR1 031428Z 17003KT 28/16 A3015 RMK A01 T02840156  RH  046%=      5-min Rain = 0
KBR1 031429Z 19002KT 28/16 A3015 RMK A01 T02840156  RH  046%=      5-min Rain = 0
KBR1 031430Z 15001KT 29/16 A3015 RMK A01 T02850156  RH  045%=      5-min Rain = 0
KBR1 031431Z 11003KT 29/16 A3015 RMK A01 T02850155  RH  045%=      5-min Rain = 0
KBR1 031432Z 09004KT 29/16 A3015 RMK A01 T02860156  RH  045%=      5-min Rain = 0
KBR1 031433Z 06003KT 29/16 A3015 RMK A01 T02850156  RH  045%=      5-min Rain = 0
KBR1 031434Z 06003KT 28/16 A3015 RMK A01 T02830155  RH  046%=      5-min Rain = 0
KBR1 031435Z 05003KT 28/16 A3015 RMK A01 T02820156  RH  046%=      5-min Rain = 0
KBR1 031436Z 05002KT 28/16 A3015 RMK A01 T02820156  RH  046%=      5-min Rain = 0
KBR1 031437Z 05002KT 28/16 A3015 RMK A01 T02830156  RH  046%=      5-min Rain = 0
KBR1 031438Z 08002KT 28/16 A3015 RMK A01 T02840157  RH  046%=      5-min Rain = 0
KBR1 031439Z 09003KT 29/16 A3015 RMK A01 T02860158  RH  046%=      5-min Rain = 0
KBR1 031440Z 08002KT 29/16 A3015 RMK A01 T02860157  RH  046%=      5-min Rain = 0
KBR1 031441Z 05002KT 29/16 A3015 RMK A01 T02860157  RH  046%=      5-min Rain = 0
KBR1 031442Z 04001KT 29/16 A3015 RMK A01 T02860157  RH  045%=      5-min Rain = 0
KBR1 031443Z 34001KT 29/16 A3015 RMK A01 T02870157  RH  045%=      5-min Rain = 0
KBR1 031444Z 23003KT 29/16 A3014 RMK A01 T02870157  RH  045%=      5-min Rain = 0
KBR1 031445Z 25002KT 29/16 A3014 RMK A01 T02880156  RH  045%=      5-min Rain = 0
KBR1 031446Z 24004KT 29/16 A3014 RMK A01 T02860156  RH  045%=      5-min Rain = 0
KBR1 031447Z 25005KT 29/16 A3014 RMK A01 T02850156  RH  046%=      5-min Rain = 0
KBR1 031448Z 24002KT 28/16 A3014 RMK A01 T02840156  RH  046%=      5-min Rain = 0
KBR1 031449Z 22002KT 28/16 A3014 RMK A01 T02830156  RH  046%=      5-min Rain = 0
KBR1 031450Z 21002KT 28/16 A3014 RMK A01 T02840156  RH  046%=      5-min Rain = 0
KBR1 031451Z 25000KT 28/16 A3014 RMK A01 T02840157  RH  046%=      5-min Rain = 0
KBR1 031452Z 14000KT 29/16 A3014 RMK A01 T02860157  RH  046%=      5-min Rain = 0
KBR1 031453Z 29002KT 29/16 A3014 RMK A01 T02890158  RH  045%=      5-min Rain = 0
KBR1 031454Z 34001KT 29/16 A3014 RMK A01 T02910158  RH  045%=      5-min Rain = 0
KBR1 031455Z 06002KT 29/16 A3014 RMK A01 T02920159  RH  045%=      5-min Rain = 0
KBR1 031456Z 10003KT 29/16 A3014 RMK A01 T02920161  RH  045%=      5-min Rain = 0
KBR1 031457Z 11007KT 29/16 A3014 RMK A01 T02920163  RH  046%=      5-min Rain = 0
KBR1 031458Z 11006KT 29/16 A3014 RMK A01 T02900162  RH  046%=      5-min Rain = 0
KBR1 031459Z 11006KT 29/16 A3014 RMK A01 T02860161  RH  046%=      5-min Rain = 0
KBR1 031500Z 10006KT 28/16 A3014 RMK A01 T02840161  RH  047%=      5-min Rain = 0
KBR1 031501Z 12005KT 28/16 A3014 RMK A01 T02840162  RH  047%=      5-min Rain = 0
KBR1 031502Z 12006KT 28/16 A3014 RMK A01 T02840161  RH  047%=      5-min Rain = 0
KBR1 031503Z 13004KT 29/16 A3014 RMK A01 T02850159  RH  046%=      5-min Rain = 0
KBR1 031504Z 13006KT 29/16 A3014 RMK A01 T02850160  RH  047%=      5-min Rain = 0
KBR1 031505Z 14005KT 29/16 A3014 RMK A01 T02860159  RH  046%=      5-min Rain = 0
KBR1 031506Z 13003KT 29/16 A3014 RMK A01 T02860159  RH  046%=      5-min Rain = 0
KBR1 031507Z 13003KT 29/16 A3014 RMK A01 T02860159  RH  046%=      5-min Rain = 0
KBR1 031508Z 11002KT 29/16 A3014 RMK A01 T02850158  RH  046%=      5-min Rain = 0
KBR1 031509Z 09002KT 29/16 A3014 RMK A01 T02850159  RH  046%=      5-min Rain = 0
KBR1 031510Z 08000KT 29/16 A3014 RMK A01 T02850160  RH  046%=      5-min Rain = 0
KBR1 031511Z 09000KT 29/16 A3014 RMK A01 T02870160  RH  046%=      5-min Rain = 0
KBR1 031512Z 13002KT 29/16 A3014 RMK A01 T02900160  RH  045%=      5-min Rain = 0
KBR1 031513Z 17005KT 29/16 A3014 RMK A01 T02920160  RH  045%=      5-min Rain = 0
KBR1 031514Z 17005KT 30/16 A3014 RMK A01 T02950159  RH  044%=      5-min Rain = 0
KBR1 031515Z 17005KT 30/16 A3014 RMK A01 T02960158  RH  043%=      5-min Rain = 0
KBR1 031516Z 16006KT 30/16 A3014 RMK A01 T02960158  RH  043%=      5-min Rain = 0
KBR1 031517Z 16007KT 30/16 A3014 RMK A01 T02960158  RH  043%=      5-min Rain = 0
KBR1 031518Z 16007KT 30/16 A3014 RMK A01 T02950158  RH  043%=      5-min Rain = 0
KBR1 031519Z 18006KT 30/16 A3014 RMK A01 T02950157  RH  043%=      5-min Rain = 0
KBR1 031520Z 20004KT 29/16 A3014 RMK A01 T02930157  RH  044%=      5-min Rain = 0
KBR1 031521Z 17003KT 29/16 A3014 RMK A01 T02920157  RH  044%=      5-min Rain = 0
KBR1 031522Z 16003KT 29/16 A3014 RMK A01 T02910158  RH  044%=      5-min Rain = 0
KBR1 031523Z 14003KT 29/16 A3014 RMK A01 T02900157  RH  044%=      5-min Rain = 0
KBR1 031524Z 16004KT 29/16 A3014 RMK A01 T02920159  RH  044%=      5-min Rain = 0
KBR1 031525Z 14002KT 29/16 A3014 RMK A01 T02920159  RH  044%=      5-min Rain = 0
KBR1 031526Z 07001KT 29/16 A3014 RMK A01 T02910158  RH  044%=      5-min Rain = 0
KBR1 031527Z 11002KT 29/16 A3014 RMK A01 T02910159  RH  045%=      5-min Rain = 0
KBR1 031528Z 15004KT 29/16 A3014 RMK A01 T02940162  RH  045%=      5-min Rain = 0
KBR1 031529Z 17006KT 30/16 A3014 RMK A01 T02980162  RH  044%=      5-min Rain = 0
KBR1 031530Z 15006KT 30/16 A3014 RMK A01 T02990162  RH  044%=      5-min Rain = 0
KBR1 031531Z 15005KT 30/16 A3014 RMK A01 T03000162  RH  043%=      5-min Rain = 0
KBR1 031532Z 17005KT 30/16 A3014 RMK A01 T02990162  RH  043%=      5-min Rain = 0
KBR1 031533Z 19007KT 30/16 A3014 RMK A01 T02990161  RH  043%=      5-min Rain = 0
KBR1 031534Z 19005KT 30/16 A3014 RMK A01 T03000160  RH  043%=      5-min Rain = 0
KBR1 031535Z 21002KT 30/16 A3014 RMK A01 T02960158  RH  043%=      5-min Rain = 0
KBR1 031536Z 16003KT 30/16 A3014 RMK A01 T02950158  RH  044%=      5-min Rain = 0
KBR1 031537Z 15006KT 30/16 A3014 RMK A01 T02950160  RH  044%=      5-min Rain = 0
KBR1 031538Z 17004KT 30/16 A3014 RMK A01 T02960159  RH  044%=      5-min Rain = 0
KBR1 031539Z 19003KT 29/16 A3014 RMK A01 T02940159  RH  044%=      5-min Rain = 0
KBR1 031540Z 17005KT 29/16 A3014 RMK A01 T02930160  RH  044%=      5-min Rain = 0
KBR1 031541Z 15004KT 30/16 A3014 RMK A01 T02970161  RH  044%=      5-min Rain = 0
KBR1 031542Z 13004KT 30/16 A3014 RMK A01 T03010161  RH  043%=      5-min Rain = 0
KBR1 031543Z 10003KT 30/16 A3014 RMK A01 T03020161  RH  043%=      5-min Rain = 0
KBR1 031544Z 13004KT 30/16 A3014 RMK A01 T03040162  RH  042%=      5-min Rain = 0
KBR1 031545Z 14003KT 31/16 A3014 RMK A01 T03050162  RH  042%=      5-min Rain = 0
KBR1 031546Z 12005KT 31/16 A3014 RMK A01 T03060161  RH  042%=      5-min Rain = 0
KBR1 031547Z 15009KT 31/16 A3014 RMK A01 T03060163  RH  042%=      5-min Rain = 0
KBR1 031548Z 13008KT 31/16 A3014 RMK A01 T03060162  RH  042%=      5-min Rain = 0
KBR1 031549Z 15008KT 30/16 A3014 RMK A01 T03000161  RH  043%=      5-min Rain = 0
KBR1 031550Z 18008KT 30/16 A3014 RMK A01 T02990161  RH  043%=      5-min Rain = 0
KBR1 031551Z 18007KT 30/16 A3014 RMK A01 T02980161  RH  044%=      5-min Rain = 0
KBR1 031552Z 16005KT 30/16 A3014 RMK A01 T02980161  RH  044%=      5-min Rain = 0
KBR1 031553Z 15006KT 30/16 A3014 RMK A01 T02970160  RH  044%=      5-min Rain = 0
KBR1 031554Z 18006KT 29/16 A3014 RMK A01 T02940160  RH  044%=      5-min Rain = 0
KBR1 031555Z 19006KT 29/16 A3014 RMK A01 T02940161  RH  044%=      5-min Rain = 0
KBR1 031556Z 19005KT 30/16 A3014 RMK A01 T02970161  RH  044%=      5-min Rain = 0
KBR1 031557Z 15006KT 30/16 A3014 RMK A01 T02980161  RH  044%=      5-min Rain = 0
KBR1 031558Z 17006KT 30/16 A3014 RMK A01 T03000162  RH  043%=      5-min Rain = 0
KBR1 031559Z 18002KT 30/16 A3014 RMK A01 T03000161  RH  043%=      5-min Rain = 0
KBR1 031600Z 13006KT 30/16 A3014 RMK A01 T02990161  RH  043%=      5-min Rain = 0
KBR1 031601Z 11006KT 30/16 A3014 RMK A01 T03000161  RH  043%=      5-min Rain = 0
KBR1 031602Z 13005KT 30/16 A3014 RMK A01 T02990160  RH  043%=      5-min Rain = 0
KBR1 031603Z 12003KT 30/16 A3014 RMK A01 T02970160  RH  043%=      5-min Rain = 0
KBR1 031604Z 09002KT 30/16 A3014 RMK A01 T02970160  RH  044%=      5-min Rain = 0
KBR1 031605Z 13003KT 30/16 A3014 RMK A01 T03000162  RH  043%=      5-min Rain = 0
KBR1 031606Z 16005KT 30/16 A3014 RMK A01 T03020162  RH  043%=      5-min Rain = 0
KBR1 031607Z 17007KT 30/16 A3014 RMK A01 T03030162  RH  043%=      5-min Rain = 0
KBR1 031608Z 18008KT 31/16 A3014 RMK A01 T03060163  RH  042%=      5-min Rain = 0
KBR1 031609Z 20007KT 31/16 A3014 RMK A01 T03090163  RH  041%=      5-min Rain = 0
KBR1 031610Z 15008KT 31/16 A3014 RMK A01 T03090163  RH  042%=      5-min Rain = 0
KBR1 031611Z 15005KT 31/16 A3014 RMK A01 T03090161  RH  041%=      5-min Rain = 0
KBR1 031612Z 16005KT 31/16 A3014 RMK A01 T03050161  RH  042%=      5-min Rain = 0
KBR1 031613Z 19008KT 31/16 A3014 RMK A01 T03050161  RH  042%=      5-min Rain = 0
KBR1 031614Z 19010KT 31/16 A3014 RMK A01 T03050161  RH  042%=      5-min Rain = 0
KBR1 031615Z 20007KT 31/16 A3014 RMK A01 T03050161  RH  042%=      5-min Rain = 0
KBR1 031616Z 19004KT 30/16 A3014 RMK A01 T03030161  RH  042%=      5-min Rain = 0
KBR1 031617Z 22003KT 30/16 A3014 RMK A01 T03030160  RH  042%=      5-min Rain = 0
KBR1 031618Z 18004KT 30/16 A3014 RMK A01 T03030161  RH  042%=      5-min Rain = 0
KBR1 031619Z 18008KT 30/16 A3014 RMK A01 T03040161  RH  042%=      5-min Rain = 0
KBR1 031620Z 17006KT 31/16 A3014 RMK A01 T03050161  RH  042%=      5-min Rain = 0
KBR1 031621Z 19005KT 30/16 A3014 RMK A01 T03040161  RH  042%=      5-min Rain = 0
KBR1 031622Z 22003KT 31/16 A3014 RMK A01 T03050162  RH  042%=      5-min Rain = 0
KBR1 031623Z 25003KT 30/16 A3014 RMK A01 T03030161  RH  042%=      5-min Rain = 0
KBR1 031624Z 12003KT 30/16 A3014 RMK A01 T03030163  RH  043%=      5-min Rain = 0
KBR1 031625Z 12005KT 31/16 A3014 RMK A01 T03060164  RH  042%=      5-min Rain = 0
KBR1 031626Z 10006KT 31/16 A3014 RMK A01 T03050163  RH  042%=      5-min Rain = 0
KBR1 031627Z 08007KT 31/16 A3014 RMK A01 T03070163  RH  042%=      5-min Rain = 0
KBR1 031628Z 08006KT 31/16 A3014 RMK A01 T03070163  RH  042%=      5-min Rain = 0
KBR1 031629Z 09006KT 31/17 A3014 RMK A01 T03090165  RH  042%=      5-min Rain = 0
KBR1 031630Z 10006KT 31/17 A3014 RMK A01 T03130166  RH  041%=      5-min Rain = 0
KBR1 031631Z 12007KT 31/17 A3014 RMK A01 T03140166  RH  041%=      5-min Rain = 0
KBR1 031632Z 16006KT 32/17 A3014 RMK A01 T03150165  RH  041%=      5-min Rain = 0
KBR1 031633Z 13008KT 31/17 A3014 RMK A01 T03140165  RH  041%=      5-min Rain = 0
KBR1 031634Z 14010KT 32/17 A3014 RMK A01 T03180165  RH  040%=      5-min Rain = 0
KBR1 031635Z 12008KT 31/16 A3014 RMK A01 T03140162  RH  040%=      5-min Rain = 0
KBR1 031636Z 13008KT 31/16 A3014 RMK A01 T03080162  RH  041%=      5-min Rain = 0
KBR1 031637Z 15010KT 31/16 A3014 RMK A01 T03080164  RH  042%=      5-min Rain = 0
KBR1 031638Z 12008KT 31/16 A3014 RMK A01 T03080163  RH  041%=      5-min Rain = 0
KBR1 031639Z 12006KT 31/16 A3014 RMK A01 T03070163  RH  042%=      5-min Rain = 0
KBR1 031640Z 14008KT 31/16 A3014 RMK A01 T03080163  RH  042%=      5-min Rain = 0
KBR1 031641Z 14007KT 31/16 A3014 RMK A01 T03070162  RH  042%=      5-min Rain = 0
KBR1 031642Z 15006KT 31/16 A3014 RMK A01 T03050162  RH  042%=      5-min Rain = 0
KBR1 031643Z 11005KT 30/16 A3014 RMK A01 T03040162  RH  042%=      5-min Rain = 0
KBR1 031644Z 09006KT 31/16 A3014 RMK A01 T03060163  RH  042%=      5-min Rain = 0
KBR1 031645Z 11004KT 31/16 A3014 RMK A01 T03080162  RH  042%=      5-min Rain = 0
KBR1 031646Z 11003KT 31/16 A3014 RMK A01 T03060164  RH  042%=      5-min Rain = 0
KBR1 031647Z 09005KT 31/16 A3014 RMK A01 T03100164  RH  041%=      5-min Rain = 0
KBR1 031648Z 12011KT 31/16 A3014 RMK A01 T03110164  RH  041%=      5-min Rain = 0
KBR1 031649Z 13008KT 31/16 A3014 RMK A01 T03120163  RH  041%=      5-min Rain = 0
KBR1 031650Z 13011KT 31/16 A3014 RMK A01 T03110162  RH  041%=      5-min Rain = 0
KBR1 031651Z 11010KT 31/16 A3014 RMK A01 T03110163  RH  041%=      5-min Rain = 0
KBR1 031652Z 10008KT 31/16 A3014 RMK A01 T03090162  RH  041%=      5-min Rain = 0
KBR1 031653Z 12010KT 31/16 A3014 RMK A01 T03100163  RH  041%=      5-min Rain = 0
KBR1 031654Z 12009KT 31/16 A3014 RMK A01 T03090162  RH  041%=      5-min Rain = 0
KBR1 031655Z 10008KT 31/16 A3014 RMK A01 T03080162  RH  041%=      5-min Rain = 0
KBR1 031656Z 11006KT 31/16 A3014 RMK A01 T03100162  RH  041%=      5-min Rain = 0
KBR1 031657Z 11007KT 31/16 A3014 RMK A01 T03100162  RH  041%=      5-min Rain = 0
KBR1 031658Z 11004KT 31/16 A3014 RMK A01 T03090162  RH  041%=      5-min Rain = 0
KBR1 031659Z 12008KT 31/16 A3014 RMK A01 T03090161  RH  041%=      5-min Rain = 0
KBR1 031700Z 13011KT 31/16 A3014 RMK A01 T03120162  RH  040%=      5-min Rain = 0
KBR1 031701Z 14010KT 31/16 A3014 RMK A01 T03130161  RH  040%=      5-min Rain = 0
KBR1 031702Z 11006KT 31/16 A3014 RMK A01 T03130161  RH  040%=      5-min Rain = 0
KBR1 031703Z 10006KT 31/16 A3014 RMK A01 T03120161  RH  040%=      5-min Rain = 0
KBR1 031704Z 09006KT 31/16 A3014 RMK A01 T03140161  RH  040%=      5-min Rain = 0
KBR1 031705Z 08004KT 31/16 A3014 RMK A01 T03120161  RH  040%=      5-min Rain = 0
KBR1 031706Z 13008KT 31/16 A3014 RMK A01 T03140161  RH  040%=      5-min Rain = 0
KBR1 031707Z 14008KT 32/16 A3014 RMK A01 T03160160  RH  039%=      5-min Rain = 0
KBR1 031708Z 13006G11KT 31/16 A3014 RMK A01 T03130159  RH  039%=      5-min Rain = 0
KBR1 031709Z 13006KT 31/16 A3014 RMK A01 T03120159  RH  040%=      5-min Rain = 0
KBR1 031710Z 12007KT 31/16 A3014 RMK A01 T03120159  RH  040%=      5-min Rain = 0
KBR1 031711Z 13006KT 31/16 A3014 RMK A01 T03140159  RH  039%=      5-min Rain = 0
KBR1 031712Z 14005KT 31/16 A3014 RMK A01 T03110158  RH  040%=      5-min Rain = 0
KBR1 031713Z 14005KT 31/16 A3014 RMK A01 T03100158  RH  040%=      5-min Rain = 0
KBR1 031714Z 15004KT 31/16 A3014 RMK A01 T03120159  RH  040%=      5-min Rain = 0
KBR1 031715Z 15006KT 31/16 A3014 RMK A01 T03130159  RH  039%=      5-min Rain = 0
KBR1 031716Z 20007KT 31/16 A3014 RMK A01 T03140158  RH  039%=      5-min Rain = 0
KBR1 031717Z 21008KT 31/16 A3014 RMK A01 T03140158  RH  039%=      5-min Rain = 0
KBR1 031718Z 20008KT 31/16 A3014 RMK A01 T03130157  RH  039%=      5-min Rain = 0
KBR1 031719Z 20005KT 31/16 A3014 RMK A01 T03130157  RH  039%=      5-min Rain = 0
KBR1 031720Z 21005KT 32/16 A3014 RMK A01 T03150158  RH  039%=      5-min Rain = 0
KBR1 031721Z 18004KT 32/16 A3014 RMK A01 T03150157  RH  039%=      5-min Rain = 0
KBR1 031722Z 18003KT 31/16 A3014 RMK A01 T03130157  RH  039%=      5-min Rain = 0
KBR1 031723Z 13007KT 31/16 A3014 RMK A01 T03140158  RH  039%=      5-min Rain = 0
KBR1 031724Z 18011KT 32/16 A3014 RMK A01 T03210160  RH  038%=      5-min Rain = 0
KBR1 031725Z 19009KT 32/16 A3014 RMK A01 T03230159  RH  037%=      5-min Rain = 0
KBR1 031726Z 20008KT 32/16 A3014 RMK A01 T03200156  RH  037%=      5-min Rain = 0
KBR1 031727Z 18007KT 32/16 A3014 RMK A01 T03190156  RH  038%=      5-min Rain = 0
KBR1 031728Z 18005KT 32/16 A3014 RMK A01 T03190157  RH  038%=      5-min Rain = 0
KBR1 031729Z 14004KT 32/16 A3014 RMK A01 T03200156  RH  037%=      5-min Rain = 0
KBR1 031730Z 11006KT 32/16 A3014 RMK A01 T03180157  RH  038%=      5-min Rain = 0
KBR1 031731Z 13004KT 32/16 A3014 RMK A01 T03170157  RH  038%=      5-min Rain = 0
KBR1 031732Z 15005KT 32/16 A3014 RMK A01 T03180157  RH  038%=      5-min Rain = 0
KBR1 031733Z 13011KT 32/16 A3014 RMK A01 T03190157  RH  038%=      5-min Rain = 0
KBR1 031734Z 12009KT 32/16 A3014 RMK A01 T03220157  RH  037%=      5-min Rain = 0
KBR1 031735Z 13009KT 33/16 A3014 RMK A01 T03250158  RH  037%=      5-min Rain = 0
KBR1 031736Z 13009KT 33/16 A3014 RMK A01 T03250155  RH  036%=      5-min Rain = 0
KBR1 031737Z 12005KT 32/15 A3014 RMK A01 T03200154  RH  037%=      5-min Rain = 0
KBR1 031738Z 09001KT 32/15 A3014 RMK A01 T03190154  RH  037%=      5-min Rain = 0
KBR1 031739Z 10003G10KT 32/15 A3014 RMK A01 T03180154  RH  037%=      5-min Rain = 0
KBR1 031740Z 12008KT 32/16 A3014 RMK A01 T03210156  RH  037%=      5-min Rain = 0
KBR1 031741Z 12007KT 32/16 A3014 RMK A01 T03240155  RH  036%=      5-min Rain = 0
KBR1 031742Z 14005KT 33/16 A3014 RMK A01 T03250155  RH  036%=      5-min Rain = 0
KBR1 031743Z 13005KT 32/15 A3014 RMK A01 T03240154  RH  036%=      5-min Rain = 0
KBR1 031744Z 15006KT 32/15 A3014 RMK A01 T03220154  RH  036%=      5-min Rain = 0
KBR1 031745Z 16011KT 32/15 A3014 RMK A01 T03240154  RH  036%=      5-min Rain = 0
KBR1 031746Z 16010KT 33/15 A3014 RMK A01 T03260153  RH  035%=      5-min Rain = 0
KBR1 031747Z 14007KT 32/15 A3014 RMK A01 T03230152  RH  035%=      5-min Rain = 0
KBR1 031748Z 13009KT 32/15 A3014 RMK A01 T03200151  RH  036%=      5-min Rain = 0
KBR1 031749Z 14010KT 32/15 A3014 RMK A01 T03210151  RH  036%=      5-min Rain = 0
KBR1 031750Z 12008KT 32/15 A3014 RMK A01 T03220151  RH  036%=      5-min Rain = 0
KBR1 031751Z 15007KT 32/15 A3014 RMK A01 T03240151  RH  035%=      5-min Rain = 0
KBR1 031752Z 15003KT 32/15 A3014 RMK A01 T03240150  RH  035%=      5-min Rain = 0
KBR1 031753Z 16006KT 32/15 A3014 RMK A01 T03210149  RH  035%=      5-min Rain = 0
KBR1 031754Z 15003KT 32/15 A3014 RMK A01 T03190148  RH  035%=      5-min Rain = 0
KBR1 031755Z 18005KT 32/15 A3013 RMK A01 T03200149  RH  035%=      5-min Rain = 0
KBR1 031756Z 22003KT 32/15 A3013 RMK A01 T03230150  RH  035%=      5-min Rain = 0
KBR1 031757Z 20005KT 32/15 A3013 RMK A01 T03240151  RH  035%=      5-min Rain = 0
KBR1 031758Z 16008KT 32/15 A3013 RMK A01 T03220151  RH  036%=      5-min Rain = 0
KBR1 031759Z 15006KT 32/15 A3013 RMK A01 T03230152  RH  036%=      5-min Rain = 0
KBR1 031800Z 19002KT 32/15 A3013 RMK A01 T03240152  RH  035%=      5-min Rain = 0
KBR1 031801Z 22002KT 32/15 A3013 RMK A01 T03230151  RH  035%=      5-min Rain = 0
KBR1 031802Z 19004KT 32/15 A3013 RMK A01 T03210151  RH  036%=      5-min Rain = 0
KBR1 031803Z 17005KT 32/15 A3013 RMK A01 T03230151  RH  035%=      5-min Rain = 0
KBR1 031804Z 15007KT 33/15 A3013 RMK A01 T03270150  RH  035%=      5-min Rain = 0
KBR1 031805Z 15006KT 33/15 A3013 RMK A01 T03300149  RH  034%=      5-min Rain = 0
KBR1 031806Z 14005KT 33/15 A3013 RMK A01 T03300150  RH  034%=      5-min Rain = 0
KBR1 031807Z 09007KT 33/15 A3013 RMK A01 T03310149  RH  034%=      5-min Rain = 0
KBR1 031808Z 10007KT 33/15 A3013 RMK A01 T03320149  RH  033%=      5-min Rain = 0
KBR1 031809Z 15011KT 34/15 A3013 RMK A01 T03360152  RH  033%=      5-min Rain = 0
KBR1 031810Z 15008KT 33/15 A3013 RMK A01 T03340148  RH  033%=      5-min Rain = 0
KBR1 031811Z 21004KT 33/15 A3013 RMK A01 T03310148  RH  033%=      5-min Rain = 0
KBR1 031812Z 21003G9KT 33/15 A3013 RMK A01 T03270148  RH  034%=      5-min Rain = 0
KBR1 031813Z 12011KT 33/15 A3013 RMK A01 T03290150  RH  034%=      5-min Rain = 0
KBR1 031814Z 14007KT 33/15 A3013 RMK A01 T03320151  RH  034%=      5-min Rain = 0
KBR1 031815Z 16004KT 33/15 A3013 RMK A01 T03330149  RH  033%=      5-min Rain = 0
KBR1 031816Z 22002KT 33/15 A3013 RMK A01 T03300147  RH  033%=      5-min Rain = 0
KBR1 031817Z 15001KT 33/15 A3013 RMK A01 T03270147  RH  034%=      5-min Rain = 0
KBR1 031818Z 12003KT 33/15 A3013 RMK A01 T03280148  RH  034%=      5-min Rain = 0
KBR1 031819Z 15008KT 33/15 A3013 RMK A01 T03330149  RH  033%=      5-min Rain = 0
KBR1 031820Z 16010KT 34/15 A3012 RMK A01 T03380148  RH  032%=      5-min Rain = 0
KBR1 031821Z 17009KT 34/15 A3012 RMK A01 T03360146  RH  032%=      5-min Rain = 0
KBR1 031822Z 16008KT 34/15 A3013 RMK A01 T03370148  RH  032%=      5-min Rain = 0
KBR1 031823Z 16006KT 34/15 A3012 RMK A01 T03350146  RH  032%=      5-min Rain = 0
KBR1 031824Z 16008KT 33/15 A3013 RMK A01 T03340146  RH  032%=      5-min Rain = 0
KBR1 031825Z 16006KT 34/14 A3012 RMK A01 T03350144  RH  032%=      5-min Rain = 0
KBR1 031826Z 17006KT 33/14 A3012 RMK A01 T03330144  RH  032%=      5-min Rain = 0
KBR1 031827Z 18004G9KT 33/14 A3012 RMK A01 T03300143  RH  032%=      5-min Rain = 0
KBR1 031828Z 16008KT 33/14 A3012 RMK A01 T03300141  RH  032%=      5-min Rain = 0
KBR1 031829Z 20003KT 33/14 A3012 RMK A01 T03290141  RH  032%=      5-min Rain = 0
KBR1 031830Z 14003KT 33/14 A3012 RMK A01 T03290142  RH  032%=      5-min Rain = 0
KBR1 031831Z 15003KT 33/14 A3012 RMK A01 T03300143  RH  032%=      5-min Rain = 0
KBR1 031832Z 11001KT 33/14 A3012 RMK A01 T03310144  RH  032%=      5-min Rain = 0
KBR1 031833Z 25002KT 33/14 A3012 RMK A01 T03340143  RH  032%=      5-min Rain = 0
KBR1 031834Z 26002KT 34/14 A3012 RMK A01 T03350144  RH  032%=      5-min Rain = 0
KBR1 031835Z 28001KT 34/14 A3011 RMK A01 T03350144  RH  032%=      5-min Rain = 0
KBR1 031836Z 11004KT 34/14 A3012 RMK A01 T03360144  RH  032%=      5-min Rain = 0
KBR1 031837Z 12009KT 34/15 A3012 RMK A01 T03380146  RH  032%=      5-min Rain = 0
KBR1 031838Z 13009G15KT 34/15 A3011 RMK A01 T03440147  RH  031%=      5-min Rain = 0
KBR1 031839Z 13006KT 34/14 A3011 RMK A01 T03420143  RH  030%=      5-min Rain = 0
KBR1 031840Z 11011KT 34/14 A3011 RMK A01 T03370143  RH  031%=      5-min Rain = 0
KBR1 031841Z 09013KT 34/14 A3011 RMK A01 T03400139  RH  030%=      5-min Rain = 0
KBR1 031842Z 09014KT 34/14 A3011 RMK A01 T03440143  RH  030%=      5-min Rain = 0
KBR1 031843Z 09011KT 34/14 A3011 RMK A01 T03430142  RH  030%=      5-min Rain = 0
KBR1 031844Z 10008KT 34/14 A3011 RMK A01 T03400137  RH  029%=      5-min Rain = 0
KBR1 031845Z 09006KT 34/14 A3011 RMK A01 T03420136  RH  029%=      5-min Rain = 0
KBR1 031846Z 15011G18KT 35/14 A3011 RMK A01 T03460137  RH  028%=      5-min Rain = 0
KBR1 031847Z 18011KT 35/13 A3011 RMK A01 T03480131  RH  027%=      5-min Rain = 0
KBR1 031848Z 16010KT 34/13 A3011 RMK A01 T03420128  RH  027%=      5-min Rain = 0
KBR1 031849Z 16010KT 34/12 A3011 RMK A01 T03430124  RH  027%=      5-min Rain = 0
KBR1 031850Z 16005KT 34/12 A3011 RMK A01 T03400120  RH  026%=      5-min Rain = 0
KBR1 031851Z 12007KT 34/13 A3011 RMK A01 T03400127  RH  028%=      5-min Rain = 0
KBR1 031852Z 12006KT 34/13 A3011 RMK A01 T03400129  RH  028%=      5-min Rain = 0
KBR1 031853Z 14005KT 34/13 A3011 RMK A01 T03400129  RH  028%=      5-min Rain = 0
KBR1 031854Z 13006KT 34/13 A3011 RMK A01 T03420132  RH  028%=      5-min Rain = 0
KBR1 031855Z 13010KT 34/14 A3011 RMK A01 T03420135  RH  029%=      5-min Rain = 0
KBR1 031856Z 13011KT 34/13 A3011 RMK A01 T03430133  RH  028%=      5-min Rain = 0
KBR1 031857Z 14011KT 35/13 A3011 RMK A01 T03450132  RH  028%=      5-min Rain = 0
KBR1 031858Z 15008KT 34/13 A3011 RMK A01 T03430130  RH  028%=      5-min Rain = 0
KBR1 031859Z 15005KT 34/13 A3011 RMK A01 T03400131  RH  028%=      5-min Rain = 0
KBR1 031900Z 16009KT 34/13 A3011 RMK A01 T03410130  RH  028%=      5-min Rain = 0
KBR1 031901Z 15009KT 35/13 A3011 RMK A01 T03460133  RH  028%=      5-min Rain = 0
KBR1 031902Z 15010KT 35/14 A3011 RMK A01 T03470138  RH  029%=      5-min Rain = 0
KBR1 031903Z 15012KT 35/14 A3011 RMK A01 T03460139  RH  029%=      5-min Rain = 0
KBR1 031904Z 16006KT 34/14 A3011 RMK A01 T03430138  RH  029%=      5-min Rain = 0
KBR1 031905Z 15008G14KT 34/14 A3011 RMK A01 T03390139  RH  030%=      5-min Rain = 0
KBR1 031906Z 15006KT 34/14 A3011 RMK A01 T03400137  RH  030%=      5-min Rain = 0
KBR1 031907Z 16004KT 34/14 A3011 RMK A01 T03380137  RH  030%=      5-min Rain = 0
KBR1 031908Z 08004KT 34/14 A301 RMK A01 T03380136  RH  030%=      5-min Rain = 0
KBR1 031909Z 04003KT 34/14 A301 RMK A01 T03380135  RH  029%=      5-min Rain = 0
KBR1 031910Z 12004KT 34/14 A301 RMK A01 T03380136  RH  030%=      5-min Rain = 0
KBR1 031911Z 10004KT 34/14 A301 RMK A01 T03350135  RH  030%=      5-min Rain = 0
KBR1 031912Z 16008KT 33/14 A301 RMK A01 T03340136  RH  030%=      5-min Rain = 0
KBR1 031913Z 14005G10KT 34/14 A301 RMK A01 T03380137  RH  030%=      5-min Rain = 0
KBR1 031914Z 16008KT 34/14 A301 RMK A01 T03390135  RH  029%=      5-min Rain = 0
KBR1 031915Z 17010KT 34/13 A301 RMK A01 T03390131  RH  028%=      5-min Rain = 0
KBR1 031916Z 12008KT 34/13 A301 RMK A01 T03390131  RH  028%=      5-min Rain = 0
KBR1 031917Z 11007KT 34/13 A301 RMK A01 T03360130  RH  029%=      5-min Rain = 0
KBR1 031918Z 11011KT 33/13 A301 RMK A01 T03340129  RH  029%=      5-min Rain = 0
KBR1 031919Z 11009KT 34/13 A301 RMK A01 T03370128  RH  028%=      5-min Rain = 0
KBR1 031920Z 10005KT 34/13 A301 RMK A01 T03370127  RH  028%=      5-min Rain = 0
KBR1 031921Z 19006KT 34/13 A301 RMK A01 T03390129  RH  028%=      5-min Rain = 0
KBR1 031922Z 20004KT 35/13 A301 RMK A01 T03450128  RH  027%=      5-min Rain = 0
KBR1 031923Z 17002KT 34/13 A301 RMK A01 T03440125  RH  027%=      5-min Rain = 0
KBR1 031924Z 12010KT 34/12 A301 RMK A01 T03440123  RH  026%=      5-min Rain = 0
KBR1 031925Z 13012KT 35/12 A3009 RMK A01 T03490124  RH  026%=      5-min Rain = 0
KBR1 031926Z 12012KT 35/12 A3009 RMK A01 T03510121  RH  025%=      5-min Rain = 0
KBR1 031927Z 13011KT 35/12 A3009 RMK A01 T03490120  RH  025%=      5-min Rain = 0
KBR1 031928Z 12012KT 35/12 A3009 RMK A01 T03510119  RH  025%=      5-min Rain = 0
KBR1 031929Z 13009KT 35/12 A301 RMK A01 T03490117  RH  025%=      5-min Rain = 0
KBR1 031930Z 13009KT 35/12 A3009 RMK A01 T03470116  RH  025%=      5-min Rain = 0
KBR1 031931Z 13008KT 35/12 A3009 RMK A01 T03470115  RH  024%=      5-min Rain = 0
KBR1 031932Z 16009KT 34/11 A3009 RMK A01 T03440114  RH  025%=      5-min Rain = 0
KBR1 031933Z 18008KT 35/12 A3009 RMK A01 T03460115  RH  025%=      5-min Rain = 0
KBR1 031934Z 19007KT 35/11 A3009 RMK A01 T03470114  RH  024%=      5-min Rain = 0
KBR1 031935Z 17003KT 35/11 A3009 RMK A01 T03490113  RH  024%=      5-min Rain = 0
KBR1 031936Z 20002KT 35/11 A3009 RMK A01 T03480110  RH  024%=      5-min Rain = 0
KBR1 031937Z 16008G15KT 35/11 A3009 RMK A01 T03470109  RH  024%=      5-min Rain = 0
KBR1 031938Z 16011G16KT 35/12 A3009 RMK A01 T03510116  RH  024%=      5-min Rain = 0
KBR1 031939Z 15010KT 35/12 A3009 RMK A01 T03540119  RH  024%=      5-min Rain = 0
KBR1 031940Z 14010KT 36/12 A3009 RMK A01 T03590117  RH  023%=      5-min Rain = 0
KBR1 031941Z 13013KT 36/11 A3009 RMK A01 T03600111  RH  022%=      5-min Rain = 0
KBR1 031942Z 12011KT 36/11 A3009 RMK A01 T03570108  RH  022%=      5-min Rain = 0
KBR1 031943Z 13008KT 36/11 A3009 RMK A01 T03550107  RH  022%=      5-min Rain = 0
KBR1 031944Z 14003KT 35/11 A3009 RMK A01 T03500109  RH  023%=      5-min Rain = 0
KBR1 031945Z 12008KT 35/10 A3009 RMK A01 T03490103  RH  022%=      5-min Rain = 0
KBR1 031946Z 09001KT 35/10 A3009 RMK A01 T03480102  RH  022%=      5-min Rain = 0
KBR1 031947Z 08002KT 35/10 A3009 RMK A01 T03480104  RH  023%=      5-min Rain = 0
KBR1 031948Z 14006KT 35/11 A3009 RMK A01 T03510105  RH  022%=      5-min Rain = 0
KBR1 031949Z 16014KT 35/11 A3009 RMK A01 T03540111  RH  023%=      5-min Rain = 0
KBR1 031950Z 17013KT 36/11 A3009 RMK A01 T03610114  RH  023%=      5-min Rain = 0
KBR1 031951Z 17010KT 36/11 A3009 RMK A01 T03610112  RH  022%=      5-min Rain = 0
KBR1 031952Z 17011G16KT 36/11 A3008 RMK A01 T03610111  RH  022%=      5-min Rain = 0
KBR1 031953Z 16011KT 36/11 A3008 RMK A01 T03630109  RH  022%=      5-min Rain = 0
KBR1 031954Z 16013KT 36/11 A3009 RMK A01 T03590107  RH  022%=      5-min Rain = 0
KBR1 031955Z 17012KT 36/11 A3009 RMK A01 T03640110  RH  022%=      5-min Rain = 0
KBR1 031956Z 17013KT 36/11 A3008 RMK A01 T03620105  RH  021%=      5-min Rain = 0
KBR1 031957Z 18008KT 36/11 A3008 RMK A01 T03570105  RH  022%=      5-min Rain = 0
KBR1 031958Z 19008KT 35/10 A3008 RMK A01 T03540102  RH  022%=      5-min Rain = 0
KBR1 031959Z 21004KT 35/10 A3008 RMK A01 T03480101  RH  022%=      5-min Rain = 0
KBR1 032000Z 18006KT 35/10 A3008 RMK A01 T03480102  RH  022%=      5-min Rain = 0
KBR1 032001Z 20004KT 35/11 A3008 RMK A01 T03520105  RH  022%=      5-min Rain = 0
KBR1 032002Z 15007KT 35/11 A3008 RMK A01 T03540107  RH  022%=      5-min Rain = 0
KBR1 032003Z 14009KT 36/11 A3008 RMK A01 T03560109  RH  022%=      5-min Rain = 0
KBR1 032004Z 14006KT 35/11 A3008 RMK A01 T03530106  RH  022%=      5-min Rain = 0
KBR1 032005Z 11008KT 35/11 A3008 RMK A01 T03510111  RH  023%=      5-min Rain = 0
KBR1 032006Z 13012G18KT 35/11 A3008 RMK A01 T03500114  RH  024%=      5-min Rain = 0
KBR1 032007Z 12010KT 35/11 A3008 RMK A01 T03500113  RH  024%=      5-min Rain = 0
KBR1 032008Z 15009KT 35/11 A3008 RMK A01 T03480113  RH  024%=      5-min Rain = 0
KBR1 032009Z 15007G12KT 35/11 A3008 RMK A01 T03460112  RH  024%=      5-min Rain = 0
KBR1 032010Z 14010KT 35/11 A3008 RMK A01 T03450113  RH  024%=      5-min Rain = 0
KBR1 032011Z 13007KT 35/11 A3008 RMK A01 T03470113  RH  024%=      5-min Rain = 0
KBR1 032012Z 10003KT 35/11 A3008 RMK A01 T03470112  RH  024%=      5-min Rain = 0
KBR1 032013Z 12003G8KT 35/11 A3008 RMK A01 T03450112  RH  024%=      5-min Rain = 0
KBR1 032014Z 13008KT 35/11 A3008 RMK A01 T03460114  RH  024%=      5-min Rain = 0
KBR1 032015Z 13009KT 35/12 A3008 RMK A01 T03520115  RH  024%=      5-min Rain = 0
KBR1 032016Z 11010KT 36/11 A3008 RMK A01 T03590110  RH  022%=      5-min Rain = 0
KBR1 032017Z 12013G18KT 36/11 A3008 RMK A01 T03590109  RH  022%=      5-min Rain = 0
KBR1 032018Z 14011G16KT 36/11 A3008 RMK A01 T03600109  RH  022%=      5-min Rain = 0
KBR1 032019Z 14011KT 36/11 A3008 RMK A01 T03580111  RH  022%=      5-min Rain = 0
KBR1 032020Z 16009KT 36/11 A3008 RMK A01 T03560111  RH  023%=      5-min Rain = 0
KBR1 032021Z 19008KT 36/11 A3008 RMK A01 T03560111  RH  023%=      5-min Rain = 0
KBR1 032022Z 17010G15KT 36/11 A3008 RMK A01 T03580111  RH  022%=      5-min Rain = 0
KBR1 032023Z 17012G17KT 36/11 A3008 RMK A01 T03590112  RH  022%=      5-min Rain = 0
KBR1 032024Z 17010KT 36/11 A3008 RMK A01 T03550111  RH  023%=      5-min Rain = 0
KBR1 032025Z 19009KT 35/11 A3008 RMK A01 T03490109  RH  023%=      5-min Rain = 0
KBR1 032026Z 16009KT 35/11 A3008 RMK A01 T03460109  RH  024%=      5-min Rain = 0
KBR1 032027Z 13012KT 35/11 A3008 RMK A01 T03480111  RH  024%=      5-min Rain = 0
KBR1 032028Z 11009KT 35/11 A3007 RMK A01 T03450110  RH  024%=      5-min Rain = 0
KBR1 032029Z 08009KT 34/11 A3007 RMK A01 T03430111  RH  024%=      5-min Rain = 0
KBR1 032030Z 12011KT 35/11 A3007 RMK A01 T03450112  RH  024%=      5-min Rain = 0
KBR1 032031Z 15012KT 35/11 A3007 RMK A01 T03520114  RH  024%=      5-min Rain = 0
KBR1 032032Z 15010KT 36/11 A3007 RMK A01 T03590114  RH  023%=      5-min Rain = 0
KBR1 032033Z 16011KT 36/11 A3007 RMK A01 T03610113  RH  022%=      5-min Rain = 0
KBR1 032034Z 14015KT 36/11 A3007 RMK A01 T03610112  RH  022%=      5-min Rain = 0
KBR1 032035Z 14014KT 37/11 A3007 RMK A01 T03650112  RH  022%=      5-min Rain = 0
KBR1 032036Z 14012KT 37/11 A3007 RMK A01 T03650109  RH  021%=      5-min Rain = 0
KBR1 032037Z 13015KT 36/11 A3007 RMK A01 T03620109  RH  022%=      5-min Rain = 0
KBR1 032038Z 12012KT 36/11 A3007 RMK A01 T03580108  RH  022%=      5-min Rain = 0
KBR1 032039Z 14010KT 36/11 A3007 RMK A01 T03580107  RH  022%=      5-min Rain = 0
KBR1 032040Z 17011KT 36/11 A3007 RMK A01 T03560106  RH  022%=      5-min Rain = 0
KBR1 032041Z 17013KT 36/11 A3007 RMK A01 T03570108  RH  022%=      5-min Rain = 0
KBR1 032042Z 16012KT 36/11 A3007 RMK A01 T03580108  RH  022%=      5-min Rain = 0
KBR1 032043Z 14014KT 36/11 A3007 RMK A01 T03610107  RH  021%=      5-min Rain = 0
KBR1 032044Z 16009KT 36/11 A3007 RMK A01 T03580105  RH  022%=      5-min Rain = 0
KBR1 032045Z 19009KT 36/11 A3007 RMK A01 T03570106  RH  022%=      5-min Rain = 0
KBR1 032046Z 20008KT 36/11 A3007 RMK A01 T03550105  RH  022%=      5-min Rain = 0
KBR1 032047Z 21004KT 35/10 A3007 RMK A01 T03510104  RH  022%=      5-min Rain = 0
KBR1 032048Z 14008G16KT 35/11 A3007 RMK A01 T03510106  RH  023%=      5-min Rain = 0
KBR1 032049Z 14013KT 36/11 A3007 RMK A01 T03580111  RH  022%=      5-min Rain = 0
KBR1 032050Z 13014KT 36/11 A3007 RMK A01 T03610109  RH  022%=      5-min Rain = 0
KBR1 032051Z 14011KT 36/11 A3007 RMK A01 T03580108  RH  022%=      5-min Rain = 0
KBR1 032052Z 13009KT 35/11 A3007 RMK A01 T03540110  RH  023%=      5-min Rain = 0
KBR1 032053Z 14011KT 35/11 A3007 RMK A01 T03520112  RH  023%=      5-min Rain = 0
KBR1 032054Z 14008KT 35/11 A3006 RMK A01 T03530111  RH  023%=      5-min Rain = 0
KBR1 032055Z 12004KT 35/11 A3007 RMK A01 T03540110  RH  023%=      5-min Rain = 0
KBR1 032056Z 17011KT 36/11 A3006 RMK A01 T03560112  RH  023%=      5-min Rain = 0
KBR1 032057Z 16009G14KT 37/11 A3006 RMK A01 T03680112  RH  021%=      5-min Rain = 0
KBR1 032058Z 17006KT 37/11 A3006 RMK A01 T03670111  RH  021%=      5-min Rain = 0
KBR1 032059Z 10010KT 37/11 A3006 RMK A01 T03660112  RH  022%=      5-min Rain = 0
KBR1 032100Z 11015KT 36/11 A3006 RMK A01 T03640114  RH  022%=      5-min Rain = 0
KBR1 032101Z 11012KT 36/11 A3006 RMK A01 T03630113  RH  022%=      5-min Rain = 0
KBR1 032102Z 11013KT 36/11 A3006 RMK A01 T03620114  RH  022%=      5-min Rain = 0
KBR1 032103Z 13012KT 37/12 A3006 RMK A01 T03690115  RH  022%=      5-min Rain = 0
KBR1 032104Z 13015KT 37/11 A3006 RMK A01 T03720114  RH  021%=      5-min Rain = 0
KBR1 032105Z 15012KT 37/11 A3006 RMK A01 T03650111  RH  022%=      5-min Rain = 0
KBR1 032106Z 14012KT 37/11 A3006 RMK A01 T03650111  RH  022%=      5-min Rain = 0
KBR1 032107Z 15012KT 36/11 A3006 RMK A01 T03630109  RH  022%=      5-min Rain = 0
KBR1 032108Z 15008KT 36/11 A3006 RMK A01 T03590107  RH  022%=      5-min Rain = 0
KBR1 032109Z 16009KT 36/11 A3006 RMK A01 T03590107  RH  022%=      5-min Rain = 0
KBR1 032110Z 15007KT 36/11 A3006 RMK A01 T03560108  RH  022%=      5-min Rain = 0
KBR1 032111Z 16008KT 35/11 A3006 RMK A01 T03540107  RH  022%=      5-min Rain = 0
KBR1 032112Z 16004KT 35/11 A3006 RMK A01 T03540105  RH  022%=      5-min Rain = 0
KBR1 032113Z 14005KT 35/11 A3006 RMK A01 T03530107  RH  022%=      5-min Rain = 0
KBR1 032114Z 16009G19KT 36/11 A3006 RMK A01 T03550109  RH  023%=      5-min Rain = 0
KBR1 032115Z 12015G22KT 36/11 A3006 RMK A01 T03600114  RH  023%=      5-min Rain = 0
KBR1 032116Z 11016KT 36/12 A3006 RMK A01 T03640117  RH  023%=      5-min Rain = 0
KBR1 032117Z 10012KT 36/12 A3006 RMK A01 T03640115  RH  022%=      5-min Rain = 0
KBR1 032118Z 13014KT 36/11 A3006 RMK A01 T03640113  RH  022%=      5-min Rain = 0
KBR1 032119Z 12010KT 36/11 A3006 RMK A01 T03640112  RH  022%=      5-min Rain = 0
KBR1 032120Z 11007KT 36/11 A3006 RMK A01 T03590111  RH  022%=      5-min Rain = 0
KBR1 032121Z 14008KT 36/11 A3006 RMK A01 T03560114  RH  023%=      5-min Rain = 0
KBR1 032122Z 17010KT 36/11 A3006 RMK A01 T03580113  RH  023%=      5-min Rain = 0
KBR1 032123Z 14015KT 36/11 A3006 RMK A01 T03630114  RH  022%=      5-min Rain = 0
KBR1 032124Z 15017KT 37/11 A3006 RMK A01 T03650110  RH  021%=      5-min Rain = 0
KBR1 032125Z 15012KT 36/11 A3006 RMK A01 T03620109  RH  022%=      5-min Rain = 0
KBR1 032126Z 16010KT 37/11 A3006 RMK A01 T03670111  RH  021%=      5-min Rain = 0
KBR1 032127Z 17011KT 37/11 A3006 RMK A01 T03660110  RH  021%=      5-min Rain = 0
KBR1 032128Z 18010KT 36/11 A3005 RMK A01 T03630111  RH  022%=      5-min Rain = 0
KBR1 032129Z 18009KT 36/11 A3005 RMK A01 T03600112  RH  022%=      5-min Rain = 0
KBR1 032130Z 16013G19KT 36/11 A3005 RMK A01 T03590113  RH  023%=      5-min Rain = 0
KBR1 032131Z 16017KT 36/12 A3005 RMK A01 T03610117  RH  023%=      5-min Rain = 0
KBR1 032132Z 17020KT 36/12 A3005 RMK A01 T03630117  RH  023%=      5-min Rain = 0
KBR1 032133Z 17016G21KT 36/12 A3005 RMK A01 T03620116  RH  023%=      5-min Rain = 0
KBR1 032134Z 16016KT 36/12 A3005 RMK A01 T03630117  RH  023%=      5-min Rain = 0
KBR1 032135Z 19011KT 36/12 A3005 RMK A01 T03620116  RH  023%=      5-min Rain = 0
KBR1 032136Z 16010KT 36/12 A3005 RMK A01 T03590115  RH  023%=      5-min Rain = 0
KBR1 032137Z 14012KT 36/12 A3005 RMK A01 T03620117  RH  023%=      5-min Rain = 0
KBR1 032138Z 14011KT 37/12 A3005 RMK A01 T03650115  RH  022%=      5-min Rain = 0
KBR1 032139Z 15015G20KT 36/11 A3005 RMK A01 T03610114  RH  022%=      5-min Rain = 0
KBR1 032140Z 16010KT 37/12 A3005 RMK A01 T03650115  RH  022%=      5-min Rain = 0
KBR1 032141Z 18009KT 36/11 A3005 RMK A01 T03640113  RH  022%=      5-min Rain = 0
KBR1 032142Z 15013G18KT 36/11 A3005 RMK A01 T03590112  RH  022%=      5-min Rain = 0
KBR1 032143Z 14017KT 36/11 A3005 RMK A01 T03580112  RH  023%=      5-min Rain = 0
KBR1 032144Z 15015KT 36/11 A3005 RMK A01 T03610113  RH  022%=      5-min Rain = 0
KBR1 032145Z 14010G15KT 36/11 A3005 RMK A01 T03620111  RH  022%=      5-min Rain = 0
KBR1 032146Z 15006KT 36/11 A3005 RMK A01 T03560109  RH  023%=      5-min Rain = 0
KBR1 032147Z 14006KT 36/11 A3005 RMK A01 T03550111  RH  023%=      5-min Rain = 0
KBR1 032148Z 15012KT 36/11 A3005 RMK A01 T03590112  RH  023%=      5-min Rain = 0
KBR1 032149Z 17011KT 36/11 A3005 RMK A01 T03630111  RH  022%=      5-min Rain = 0
KBR1 032150Z 19013KT 36/11 A3005 RMK A01 T03600108  RH  022%=      5-min Rain = 0
KBR1 032151Z 19010KT 36/11 A3005 RMK A01 T03570107  RH  022%=      5-min Rain = 0
KBR1 032152Z 18014KT 36/11 A3005 RMK A01 T03630111  RH  022%=      5-min Rain = 0
KBR1 032153Z 17012KT 37/11 A3005 RMK A01 T03660111  RH  022%=      5-min Rain = 0
KBR1 032154Z 17010KT 36/11 A3005 RMK A01 T03620109  RH  022%=      5-min Rain = 0
KBR1 032155Z 18014KT 36/11 A3005 RMK A01 T03610111  RH  022%=      5-min Rain = 0
KBR1 032156Z 17015KT 36/11 A3005 RMK A01 T03620113  RH  022%=      5-min Rain = 0
KBR1 032157Z 16015KT 36/11 A3005 RMK A01 T03610112  RH  022%=      5-min Rain = 0
KBR1 032158Z 14011KT 36/11 A3005 RMK A01 T03620114  RH  022%=      5-min Rain = 0
KBR1 032159Z 14009KT 36/12 A3005 RMK A01 T03620116  RH  023%=      5-min Rain = 0
KBR1 032200Z 14009G14KT 36/12 A3005 RMK A01 T03630115  RH  022%=      5-min Rain = 0
KBR1 032201Z 13014KT 37/12 A3005 RMK A01 T03650116  RH  022%=      5-min Rain = 0
KBR1 032202Z 14011G16KT 37/12 A3005 RMK A01 T03660115  RH  022%=      5-min Rain = 0
KBR1 032203Z 15010KT 37/12 A3005 RMK A01 T03670115  RH  022%=      5-min Rain = 0
KBR1 032204Z 16010KT 37/12 A3005 RMK A01 T03680116  RH  022%=      5-min Rain = 0
KBR1 032205Z 13011KT 37/12 A3005 RMK A01 T03650116  RH  022%=      5-min Rain = 0
KBR1 032206Z 13014KT 37/12 A3005 RMK A01 T03650117  RH  022%=      5-min Rain = 0
KBR1 032207Z 11013KT 37/12 A3005 RMK A01 T03710118  RH  022%=      5-min Rain = 0
KBR1 032208Z 12012KT 36/12 A3005 RMK A01 T03640115  RH  022%=      5-min Rain = 0
KBR1 032209Z 12011KT 36/12 A3005 RMK A01 T03600116  RH  023%=      5-min Rain = 0
KBR1 032210Z 15012KT 36/12 A3005 RMK A01 T03640118  RH  023%=      5-min Rain = 0
KBR1 032211Z 16008G14KT 36/12 A3005 RMK A01 T03640116  RH  022%=      5-min Rain = 0
KBR1 032212Z 15004KT 36/12 A3005 RMK A01 T03610116  RH  023%=      5-min Rain = 0
KBR1 032213Z 15007KT 36/12 A3004 RMK A01 T03640118  RH  023%=      5-min Rain = 0
KBR1 032214Z 14015KT 37/12 A3004 RMK A01 T03690118  RH  022%=      5-min Rain = 0
KBR1 032215Z 16013KT 37/12 A3004 RMK A01 T03690117  RH  022%=      5-min Rain = 0
KBR1 032216Z 16013KT 37/12 A3004 RMK A01 T03660116  RH  022%=      5-min Rain = 0
KBR1 032217Z 13016KT 36/12 A3004 RMK A01 T03630115  RH  022%=      5-min Rain = 0
KBR1 032218Z 14015KT 36/11 A3004 RMK A01 T03630113  RH  022%=      5-min Rain = 0
KBR1 032219Z 16017KT 36/11 A3004 RMK A01 T03600111  RH  022%=      5-min Rain = 0
KBR1 032220Z 17014KT 36/11 A3004 RMK A01 T03570113  RH  023%=      5-min Rain = 0
KBR1 032221Z 16010KT 35/11 A3004 RMK A01 T03540113  RH  023%=      5-min Rain = 0
KBR1 032222Z 16009KT 35/11 A3004 RMK A01 T03530113  RH  023%=      5-min Rain = 0
KBR1 032223Z 16010KT 35/11 A3004 RMK A01 T03530112  RH  023%=      5-min Rain = 0
KBR1 032224Z 15014KT 35/11 A3004 RMK A01 T03520112  RH  023%=      5-min Rain = 0
KBR1 032225Z 16015KT 35/11 A3004 RMK A01 T03530113  RH  023%=      5-min Rain = 0
KBR1 032226Z 15014KT 36/12 A3004 RMK A01 T03570116  RH  023%=      5-min Rain = 0
KBR1 032227Z 15012KT 36/11 A3004 RMK A01 T03600114  RH  023%=      5-min Rain = 0
KBR1 032228Z 15010KT 36/11 A3004 RMK A01 T03580112  RH  023%=      5-min Rain = 0
KBR1 032229Z 16012KT 36/11 A3004 RMK A01 T03570111  RH  023%=      5-min Rain = 0
KBR1 032230Z 15011KT 35/11 A3004 RMK A01 T03540110  RH  023%=      5-min Rain = 0
KBR1 032231Z 14012KT 35/12 A3004 RMK A01 T03530115  RH  024%=      5-min Rain = 0
KBR1 032232Z 17015G20KT 36/12 A3004 RMK A01 T03550115  RH  023%=      5-min Rain = 0
KBR1 032233Z 15016KT 36/12 A3004 RMK A01 T03580116  RH  023%=      5-min Rain = 0
KBR1 032234Z 16015KT 36/12 A3004 RMK A01 T03590117  RH  023%=      5-min Rain = 0
KBR1 032235Z 17016KT 36/12 A3004 RMK A01 T03600118  RH  023%=      5-min Rain = 0
KBR1 032236Z 17015KT 36/12 A3004 RMK A01 T03590116  RH  023%=      5-min Rain = 0
KBR1 032237Z 17015KT 36/12 A3004 RMK A01 T03600117  RH  023%=      5-min Rain = 0
KBR1 032238Z 16012KT 36/12 A3004 RMK A01 T03590117  RH  023%=      5-min Rain = 0
KBR1 032239Z 17012KT 36/12 A3004 RMK A01 T03600117  RH  023%=      5-min Rain = 0
KBR1 032240Z 17014KT 36/12 A3004 RMK A01 T03610118  RH  023%=      5-min Rain = 0
KBR1 032241Z 17016KT 36/12 A3004 RMK A01 T03630121  RH  023%=      5-min Rain = 0
KBR1 032242Z 16016KT 36/12 A3004 RMK A01 T03640121  RH  023%=      5-min Rain = 0
KBR1 032243Z 17013KT 36/12 A3004 RMK A01 T03580119  RH  024%=      5-min Rain = 0
KBR1 032244Z 18012KT 36/12 A3004 RMK A01 T03570119  RH  024%=      5-min Rain = 0
KBR1 032245Z 17013KT 36/12 A3004 RMK A01 T03600119  RH  024%=      5-min Rain = 0
KBR1 032246Z 16014KT 36/12 A3004 RMK A01 T03640117  RH  023%=      5-min Rain = 0
KBR1 032247Z 14015KT 36/12 A3004 RMK A01 T03640116  RH  022%=      5-min Rain = 0
KBR1 032248Z 16014KT 37/12 A3004 RMK A01 T03650116  RH  022%=      5-min Rain = 0
KBR1 032249Z 16014KT 36/11 A3004 RMK A01 T03630114  RH  022%=      5-min Rain = 0
KBR1 032250Z 15013KT 36/11 A3004 RMK A01 T03610112  RH  022%=      5-min Rain = 0
KBR1 032251Z 14014KT 36/11 A3004 RMK A01 T03570111  RH  023%=      5-min Rain = 0
KBR1 032252Z 14013KT 35/11 A3004 RMK A01 T03540112  RH  023%=      5-min Rain = 0
KBR1 032253Z 14010KT 35/11 A3004 RMK A01 T03500111  RH  023%=      5-min Rain = 0
KBR1 032254Z 15012G17KT 35/11 A3004 RMK A01 T03470112  RH  024%=      5-min Rain = 0
KBR1 032255Z 17014KT 35/11 A3003 RMK A01 T03500114  RH  024%=      5-min Rain = 0
KBR1 032256Z 17015KT 35/12 A3003 RMK A01 T03530115  RH  024%=      5-min Rain = 0
KBR1 032257Z 16015KT 35/12 A3003 RMK A01 T03530115  RH  024%=      5-min Rain = 0
KBR1 032258Z 16013KT 35/12 A3003 RMK A01 T03520116  RH  024%=      5-min Rain = 0
KBR1 032259Z 17013KT 35/12 A3003 RMK A01 T03500116  RH  024%=      5-min Rain = 0
KBR1 032300Z 17013KT 35/12 A3003 RMK A01 T03490119  RH  025%=      5-min Rain = 0
KBR1 032301Z 18016KT 35/12 A3003 RMK A01 T03500121  RH  025%=      5-min Rain = 0
KBR1 032302Z 18015KT 35/12 A3003 RMK A01 T03510122  RH  025%=      5-min Rain = 0
KBR1 032303Z 17013KT 35/12 A3003 RMK A01 T03500123  RH  025%=      5-min Rain = 0
KBR1 032304Z 16013G18KT 35/12 A3003 RMK A01 T03510124  RH  025%=      5-min Rain = 0
KBR1 032305Z 17016KT 35/12 A3003 RMK A01 T03510123  RH  025%=      5-min Rain = 0
KBR1 032306Z 17015KT 35/12 A3003 RMK A01 T03480123  RH  026%=      5-min Rain = 0
KBR1 032307Z 16013KT 35/12 A3003 RMK A01 T03460122  RH  026%=      5-min Rain = 0
KBR1 032308Z 17015KT 35/12 A3003 RMK A01 T03450122  RH  026%=      5-min Rain = 0
KBR1 032309Z 17013KT 34/12 A3004 RMK A01 T03440121  RH  026%=      5-min Rain = 0
KBR1 032310Z 16012KT 34/12 A3004 RMK A01 T03430122  RH  026%=      5-min Rain = 0
KBR1 032311Z 17013KT 34/12 A3004 RMK A01 T03430122  RH  026%=      5-min Rain = 0
KBR1 032312Z 16015KT 34/12 A3004 RMK A01 T03420121  RH  026%=      5-min Rain = 0
KBR1 032313Z 17013KT 34/12 A3004 RMK A01 T03420121  RH  026%=      5-min Rain = 0
KBR1 032314Z 17014KT 34/12 A3004 RMK A01 T03420120  RH  026%=      5-min Rain = 0
KBR1 032315Z 17010KT 34/12 A3004 RMK A01 T03410120  RH  026%=      5-min Rain = 0
KBR1 032316Z 16014G19KT 34/12 A3004 RMK A01 T03410120  RH  026%=      5-min Rain = 0
KBR1 032317Z 15014KT 34/12 A3004 RMK A01 T03420118  RH  026%=      5-min Rain = 0
KBR1 032318Z 15013KT 34/12 A3004 RMK A01 T03420117  RH  026%=      5-min Rain = 0
KBR1 032319Z 16012KT 34/12 A3004 RMK A01 T03410117  RH  026%=      5-min Rain = 0
KBR1 032320Z 17010KT 34/12 A3004 RMK A01 T03410119  RH  026%=      5-min Rain = 0
KBR1 032321Z 17011KT 34/12 A3005 RMK A01 T03410121  RH  026%=      5-min Rain = 0
KBR1 032322Z 17014KT 34/12 A3005 RMK A01 T03420124  RH  027%=      5-min Rain = 0
KBR1 032323Z 17016KT 34/13 A3005 RMK A01 T03410125  RH  027%=      5-min Rain = 0
KBR1 032324Z 18015KT 34/13 A3005 RMK A01 T03400126  RH  027%=      5-min Rain = 0
KBR1 032325Z 17016KT 34/13 A3005 RMK A01 T03400126  RH  027%=      5-min Rain = 0
KBR1 032326Z 17016KT 34/13 A3005 RMK A01 T03390125  RH  027%=      5-min Rain = 0
KBR1 032327Z 16015KT 34/13 A3005 RMK A01 T03390125  RH  027%=      5-min Rain = 0
KBR1 032328Z 16013KT 34/13 A3005 RMK A01 T03390125  RH  027%=      5-min Rain = 0
KBR1 032329Z 15017KT 34/13 A3005 RMK A01 T03390125  RH  027%=      5-min Rain = 0
KBR1 032330Z 16017KT 34/12 A3006 RMK A01 T03380124  RH  027%=      5-min Rain = 0
KBR1 032331Z 17017KT 34/12 A3005 RMK A01 T03370124  RH  028%=      5-min Rain = 0
KBR1 032332Z 18015KT 34/13 A3006 RMK A01 T03360125  RH  028%=      5-min Rain = 0
KBR1 032333Z 17014KT 34/13 A3006 RMK A01 T03370126  RH  028%=      5-min Rain = 0
KBR1 032334Z 17017KT 34/13 A3006 RMK A01 T03360126  RH  028%=      5-min Rain = 0
KBR1 032335Z 19018KT 34/13 A3006 RMK A01 T03360127  RH  028%=      5-min Rain = 0
KBR1 032336Z 19018KT 34/13 A3006 RMK A01 T03350126  RH  028%=      5-min Rain = 0
KBR1 032337Z 19017KT 34/13 A3006 RMK A01 T03350125  RH  028%=      5-min Rain = 0
KBR1 032338Z 18016KT 34/13 A3006 RMK A01 T03350125  RH  028%=      5-min Rain = 0
KBR1 032339Z 18018KT 34/13 A3006 RMK A01 T03350125  RH  028%=      5-min Rain = 0
KBR1 032340Z 17015KT 33/13 A3006 RMK A01 T03340125  RH  028%=      5-min Rain = 0
KBR1 032341Z 18015KT 33/13 A3006 RMK A01 T03330125  RH  028%=      5-min Rain = 0
KBR1 032342Z 18016KT 33/13 A3006 RMK A01 T03340125  RH  028%=      5-min Rain = 0
KBR1 032343Z 18018KT 34/13 A3006 RMK A01 T03350126  RH  028%=      5-min Rain = 0
KBR1 032344Z 18020KT 33/13 A3006 RMK A01 T03340126  RH  028%=      5-min Rain = 0
KBR1 032345Z 18017KT 33/13 A3005 RMK A01 T03330126  RH  028%=      5-min Rain = 0
KBR1 032346Z 18016KT 33/13 A3005 RMK A01 T03330126  RH  028%=      5-min Rain = 0
KBR1 032347Z 19017KT 33/13 A3005 RMK A01 T03320126  RH  029%=      5-min Rain = 0
KBR1 032348Z 19015KT 33/13 A3005 RMK A01 T03320126  RH  029%=      5-min Rain = 0
KBR1 032349Z 19015KT 33/13 A3005 RMK A01 T03330126  RH  028%=      5-min Rain = 0
KBR1 032350Z 19014G19KT 33/13 A3005 RMK A01 T03330126  RH  028%=      5-min Rain = 0
KBR1 032351Z 19016KT 33/13 A3005 RMK A01 T03340126  RH  028%=      5-min Rain = 0
KBR1 032352Z 18019KT 33/13 A3005 RMK A01 T03340126  RH  028%=      5-min Rain = 0
KBR1 032353Z 18014KT 33/13 A3005 RMK A01 T03340126  RH  028%=      5-min Rain = 0
KBR1 032354Z 17012KT 33/13 A3005 RMK A01 T03340126  RH  028%=      5-min Rain = 0
KBR1 032355Z 17016KT 33/13 A3005 RMK A01 T03340125  RH  028%=      5-min Rain = 0
KBR1 032356Z 17017KT 33/12 A3005 RMK A01 T03340124  RH  028%=      5-min Rain = 0
KBR1 032357Z 18015KT 33/12 A3005 RMK A01 T03330124  RH  028%=      5-min Rain = 0
KBR1 032358Z 17015KT 33/12 A3005 RMK A01 T03330123  RH  028%=      5-min Rain = 0
KBR1 032359Z 17017KT 33/12 A3005 RMK A01 T03330122  RH  028%=      5-min Rain = 0
KBR1 040000Z 17015KT 33/12 A3005 RMK A01 T03330122  RH  028%=      5-min Rain = 0
KBR1 040001Z 17013KT 33/12 A3005 RMK A01 T03330122  RH  028%=      5-min Rain = 0
KBR1 040002Z 18012KT 33/12 A3005 RMK A01 T03330122  RH  028%=      5-min Rain = 0
KBR1 040003Z 18013KT 34/12 A3005 RMK A01 T03350121  RH  027%=      5-min Rain = 0
KBR1 040004Z 18015KT 33/12 A3005 RMK A01 T03340119  RH  027%=      5-min Rain = 0
KBR1 040005Z 18015KT 33/12 A3005 RMK A01 T03340118  RH  027%=      5-min Rain = 0
KBR1 040006Z 18015KT 33/12 A3006 RMK A01 T03330118  RH  027%=      5-min Rain = 0
KBR1 040007Z 18014KT 33/12 A3006 RMK A01 T03330117  RH  027%=      5-min Rain = 0
KBR1 040008Z 19014KT 33/12 A3006 RMK A01 T03330119  RH  027%=      5-min Rain = 0
KBR1 040009Z 18010KT 33/12 A3006 RMK A01 T03330120  RH  027%=      5-min Rain = 0
KBR1 040010Z 18010KT 33/12 A3006 RMK A01 T03330120  RH  027%=      5-min Rain = 0
KBR1 040011Z 18013KT 33/12 A3006 RMK A01 T03330120  RH  027%=      5-min Rain = 0
KBR1 040012Z 18011KT 33/12 A3006 RMK A01 T03330120  RH  027%=      5-min Rain = 0
KBR1 040013Z 18011KT 33/12 A3007 RMK A01 T03320121  RH  028%=      5-min Rain = 0
KBR1 040014Z 19012KT 33/12 A3007 RMK A01 T03320121  RH  028%=      5-min Rain = 0
KBR1 040015Z 17011KT 33/12 A3007 RMK A01 T03330121  RH  028%=      5-min Rain = 0
KBR1 040016Z 18012KT 33/12 A3007 RMK A01 T03330121  RH  028%=      5-min Rain = 0
KBR1 040017Z 18012KT 33/12 A3007 RMK A01 T03330121  RH  028%=      5-min Rain = 0
KBR1 040018Z 17011KT 33/12 A3007 RMK A01 T03320121  RH  028%=      5-min Rain = 0
KBR1 040019Z 17011KT 33/12 A3007 RMK A01 T03320121  RH  028%=      5-min Rain = 0
KBR1 040020Z 18010KT 33/12 A3008 RMK A01 T03320121  RH  028%=      5-min Rain = 0
KBR1 040021Z 18010KT 33/12 A3008 RMK A01 T03310122  RH  028%=      5-min Rain = 0
KBR1 040022Z 20010KT 33/12 A3008 RMK A01 T03310122  RH  028%=      5-min Rain = 0
KBR1 040023Z 19015KT 33/12 A3008 RMK A01 T03320123  RH  028%=      5-min Rain = 0
KBR1 040024Z 19013KT 33/12 A3008 RMK A01 T03320124  RH  028%=      5-min Rain = 0
KBR1 040025Z 20012KT 33/12 A3008 RMK A01 T03310124  RH  028%=      5-min Rain = 0
KBR1 040026Z 20013KT 33/12 A3009 RMK A01 T03310124  RH  028%=      5-min Rain = 0
KBR1 040027Z 21011KT 33/12 A3009 RMK A01 T03310124  RH  028%=      5-min Rain = 0
KBR1 040028Z 27015G25KT 33/12 A3011 RMK A01 T03310124  RH  028%=      5-min Rain = 0
KBR1 040029Z 29023G30KT 32/14 A3012 RMK A01 T03210140  RH  033%=      5-min Rain = 0
KBR1 040030Z 31033G44KT 29/15 A3012 RMK A01 T02920145  RH  041%=      5-min Rain = 0
KBR1 040031Z 33026G36KT 27/15 A3012 RMK A01 T02720148  RH  047%=      5-min Rain = 0
KBR1 040032Z 33033G39KT 26/15 A3013 RMK A01 T02600151  RH  051%=      5-min Rain = 0
KBR1 040033Z 33034KT 25/15 A3013 RMK A01 T02500153  RH  055%=      5-min Rain = 0
KBR1 040034Z 33032G37KT 24/16 A3013 RMK A01 T02430155  RH  058%=      5-min Rain = 0
KBR1 040035Z 34030KT 24/16 A3013 RMK A01 T02410156  RH  059%=      5-min Rain = 0
KBR1 040036Z 34031G44KT 24/16 A3013 RMK A01 T02390158  RH  060%=      5-min Rain = 0
KBR1 040037Z 34039G45KT 24/16 A3013 RMK A01 T02370159  RH  062%=      5-min Rain = 0
KBR1 040038Z 34037G43KT 23/16 A3013 RMK A01 T02330161  RH  064%=      5-min Rain = 0
KBR1 040039Z 34036G41KT 23/16 A3014 RMK A01 T02300162  RH  065%=      5-min Rain = 0
KBR1 040040Z 34035G43KT 23/16 A3014 RMK A01 T02280163  RH  067%=      5-min Rain = 0
KBR1 040041Z 34031G40KT 23/16 A3013 RMK A01 T02260164  RH  068%=      5-min Rain = 0
KBR1 040042Z 34034G43KT 23/16 A3013 RMK A01 T02250164  RH  068%=      5-min Rain = 0
KBR1 040043Z 34036KT 22/17 A3013 RMK A01 T02230165  RH  070%=      5-min Rain = 0
KBR1 040044Z 34031G38KT 22/17 A3013 RMK A01 T02210166  RH  071%=      5-min Rain = 0
KBR1 040045Z 34035G41KT 22/17 A3013 RMK A01 T02200166  RH  071%=      5-min Rain = 0
KBR1 040046Z 34030G36KT 22/17 A3013 RMK A01 T02190167  RH  072%=      5-min Rain = 0
KBR1 040047Z 34033G40KT 22/17 A3013 RMK A01 T02190167  RH  073%=      5-min Rain = 0
KBR1 040048Z 34035G42KT 22/17 A3013 RMK A01 T02190168  RH  073%=      5-min Rain = 0
KBR1 040049Z 35034G41KT 22/17 A3013 RMK A01 T02180168  RH  074%=      5-min Rain = 0
KBR1 040050Z 34031G37KT 22/17 A3013 RMK A01 T02170169  RH  074%=      5-min Rain = 0
KBR1 040051Z 34033G39KT 22/17 A3013 RMK A01 T02170168  RH  074%=      5-min Rain = 0
KBR1 040052Z 34033G38KT 22/17 A3013 RMK A01 T02170166  RH  073%=      5-min Rain = 0
KBR1 040053Z 34035G41KT 22/17 A3013 RMK A01 T02170165  RH  072%=      5-min Rain = 0
KBR1 040054Z 34032G38KT 22/17 A3013 RMK A01 T02170165  RH  072%=      5-min Rain = 0
KBR1 040055Z 34033G39KT 22/16 A3013 RMK A01 T02170164  RH  072%=      5-min Rain = 0
KBR1 040056Z 34032G39KT 22/16 A3013 RMK A01 T02180164  RH  071%=      5-min Rain = 0
KBR1 040057Z 34033G38KT 22/17 A3013 RMK A01 T02190165  RH  071%=      5-min Rain = 0
KBR1 040058Z 34034KT 22/16 A3013 RMK A01 T02180164  RH  071%=      5-min Rain = 0
KBR1 040059Z 34030G38KT 22/17 A3013 RMK A01 T02180165  RH  072%=      5-min Rain = 0
KBR1 040100Z 34032G40KT 22/17 A3013 RMK A01 T02180165  RH  072%=      5-min Rain = 0
KBR1 040101Z 34037G42KT 22/17 A3012 RMK A01 T02170165  RH  072%=      5-min Rain = 0
KBR1 040102Z 34032G38KT 22/17 A3013 RMK A01 T02160166  RH  073%=      5-min Rain = 0
KBR1 040103Z 35033G39KT 22/17 A3012 RMK A01 T02160166  RH  073%=      5-min Rain = 0
KBR1 040104Z 35034G39KT 22/17 A3012 RMK A01 T02160165  RH  073%=      5-min Rain = 0
KBR1 040105Z 35035KT 22/17 A3012 RMK A01 T02150165  RH  073%=      5-min Rain = 0
KBR1 040106Z 35032G39KT 21/17 A3013 RMK A01 T02140165  RH  074%=      5-min Rain = 0
KBR1 040107Z 35029G34KT 21/17 A3013 RMK A01 T02140166  RH  074%=      5-min Rain = 0
KBR1 040108Z 35031G36KT 21/17 A3013 RMK A01 T02140165  RH  074%=      5-min Rain = 0
KBR1 040109Z 34029KT 21/17 A3013 RMK A01 T02140166  RH  074%=      5-min Rain = 0
KBR1 040110Z 34033G38KT 21/17 A3013 RMK A01 T02140168  RH  075%=      5-min Rain = 0
KBR1 040111Z 34032G37KT 21/17 A3013 RMK A01 T02110168  RH  076%=      5-min Rain = 0
KBR1 040112Z 35032G38KT 21/17 A3013 RMK A01 T02110167  RH  076%=      5-min Rain = 0
KBR1 040113Z 35030KT 21/17 A3013 RMK A01 T02110167  RH  076%=      5-min Rain = 0
KBR1 040114Z 35032KT 21/17 A3013 RMK A01 T02110166  RH  075%=      5-min Rain = 0
KBR1 040115Z 34029G34KT 21/17 A3013 RMK A01 T02100165  RH  075%=      5-min Rain = 0
KBR1 040116Z 34030G35KT 21/16 A3013 RMK A01 T02100164  RH  075%=      5-min Rain = 0
KBR1 040117Z 34029G35KT 21/16 A3013 RMK A01 T02110163  RH  074%=      5-min Rain = 0
KBR1 040118Z 34028KT 21/16 A3013 RMK A01 T02120162  RH  073%=      5-min Rain = 0
KBR1 040119Z 34031G36KT 21/16 A3013 RMK A01 T02120161  RH  073%=      5-min Rain = 0
KBR1 040120Z 34033KT 21/16 A3013 RMK A01 T02130161  RH  072%=      5-min Rain = 0
KBR1 040121Z 34034KT 21/16 A3013 RMK A01 T02130160  RH  072%=      5-min Rain = 0
KBR1 040122Z 34028G33KT 21/16 A3013 RMK A01 T02130159  RH  071%=      5-min Rain = 0
KBR1 040123Z 34030G35KT 21/16 A3013 RMK A01 T02140158  RH  070%=      5-min Rain = 0
KBR1 040124Z 34029G38KT 22/16 A3014 RMK A01 T02150158  RH  070%=      5-min Rain = 0
KBR1 040125Z 34026G32KT 21/16 A3014 RMK A01 T02140157  RH  070%=      5-min Rain = 0
KBR1 040126Z 34025KT 22/16 A3014 RMK A01 T02150156  RH  069%=      5-min Rain = 0
KBR1 040127Z 34030KT 22/15 A3014 RMK A01 T02150154  RH  068%=      5-min Rain = 0
KBR1 040128Z 34027G33KT 22/15 A3014 RMK A01 T02150154  RH  068%=      5-min Rain = 0
KBR1 040129Z 34023KT 22/15 A3014 RMK A01 T02150154  RH  068%=      5-min Rain = 0
KBR1 040130Z 34026G33KT 22/15 A3014 RMK A01 T02160154  RH  068%=      5-min Rain = 0
KBR1 040131Z 34032KT 22/15 A3014 RMK A01 T02170154  RH  067%=      5-min Rain = 0
KBR1 040132Z 34031KT 22/15 A3014 RMK A01 T02170153  RH  067%=      5-min Rain = 0
KBR1 040133Z 34028G34KT 22/15 A3014 RMK A01 T02170153  RH  067%=      5-min Rain = 0
KBR1 040134Z 34026G32KT 22/15 A3014 RMK A01 T02180153  RH  066%=      5-min Rain = 0
KBR1 040135Z 34029KT 22/15 A3014 RMK A01 T02190153  RH  066%=      5-min Rain = 0
KBR1 040136Z 34028G33KT 22/15 A3014 RMK A01 T02190153  RH  066%=      5-min Rain = 0
KBR1 040137Z 34030G36KT 22/15 A3014 RMK A01 T02200154  RH  066%=      5-min Rain = 0
KBR1 040138Z 34025G30KT 22/15 A3014 RMK A01 T02190154  RH  067%=      5-min Rain = 0
KBR1 040139Z 34031G36KT 22/16 A3015 RMK A01 T02190156  RH  067%=      5-min Rain = 0
KBR1 040140Z 34032KT 22/16 A3015 RMK A01 T02180158  RH  069%=      5-min Rain = 0
KBR1 040141Z 34030G35KT 22/16 A3015 RMK A01 T02160159  RH  070%=      5-min Rain = 0
KBR1 040142Z 34029G34KT 21/16 A3015 RMK A01 T02140160  RH  071%=      5-min Rain = 0
KBR1 040143Z 34028G35KT 21/16 A3015 RMK A01 T02130161  RH  072%=      5-min Rain = 0
KBR1 040144Z 34028G34KT 21/16 A3015 RMK A01 T02130161  RH  072%=      5-min Rain = 0
KBR1 040145Z 34030KT 21/16 A3015 RMK A01 T02130161  RH  072%=      5-min Rain = 0
KBR1 040146Z 35028KT 21/16 A3015 RMK A01 T02130161  RH  072%=      5-min Rain = 0
KBR1 040147Z 34025G30KT 21/16 A3016 RMK A01 T02120161  RH  073%=      5-min Rain = 0
KBR1 040148Z 34027G32KT 21/16 A3016 RMK A01 T02120162  RH  073%=      5-min Rain = 0
KBR1 040149Z 35027G32KT 21/16 A3016 RMK A01 T02120163  RH  074%=      5-min Rain = 0
KBR1 040150Z 34023G29KT 21/16 A3016 RMK A01 T02110163  RH  074%=      5-min Rain = 0
KBR1 040151Z 35024G30KT 21/16 A3016 RMK A01 T02100164  RH  075%=      5-min Rain = 0
KBR1 040152Z 35025G32KT 21/16 A3016 RMK A01 T02090164  RH  076%=      5-min Rain = 0
KBR1 040153Z 35028G33KT 21/16 A3016 RMK A01 T02090163  RH  075%=      5-min Rain = 0
KBR1 040154Z 35024KT 21/16 A3016 RMK A01 T02090163  RH  075%=      5-min Rain = 0
KBR1 040155Z 35021G29KT 21/16 A3016 RMK A01 T02090164  RH  075%=      5-min Rain = 0
KBR1 040156Z 34029KT 21/16 A3016 RMK A01 T02090161  RH  074%=      5-min Rain = 0
KBR1 040157Z 35027G32KT 21/16 A3016 RMK A01 T02090160  RH  073%=      5-min Rain = 0
KBR1 040158Z 35029KT 21/16 A3016 RMK A01 T02100161  RH  073%=      5-min Rain = 0
KBR1 040159Z 35026G33KT 21/16 A3016 RMK A01 T02100161  RH  073%=      5-min Rain = 0
KBR1 040200Z 35024G29KT 21/16 A3016 RMK A01 T02100162  RH  074%=      5-min Rain = 0
KBR1 040201Z 34025KT 21/16 A3016 RMK A01 T02100163  RH  074%=      5-min Rain = 0
KBR1 040202Z 35023G30KT 21/16 A3016 RMK A01 T02100163  RH  075%=      5-min Rain = 0
KBR1 040203Z 34026G31KT 21/16 A3016 RMK A01 T02090163  RH  075%=      5-min Rain = 0
KBR1 040204Z 35025KT 21/16 A3016 RMK A01 T02090163  RH  075%=      5-min Rain = 0
KBR1 040205Z 34024KT 21/16 A3016 RMK A01 T02090164  RH  076%=      5-min Rain = 0
KBR1 040206Z 35024KT 21/16 A3017 RMK A01 T02070164  RH  076%=      5-min Rain = 0
KBR1 040207Z 35022G28KT 21/17 A3017 RMK A01 T02070166  RH  077%=      5-min Rain = 0
KBR1 040208Z 34020G26KT 21/17 A3017 RMK A01 T02070166  RH  077%=      5-min Rain = 0
KBR1 040209Z 34020G26KT 21/17 A3017 RMK A01 T02060167  RH  078%=      5-min Rain = 0
KBR1 040210Z 35026KT 21/17 A3016 RMK A01 T02060166  RH  078%=      5-min Rain = 0
KBR1 040211Z 35024G29KT 21/17 A3016 RMK A01 T02060166  RH  078%=      5-min Rain = 0
KBR1 040212Z 35026KT 21/17 A3016 RMK A01 T02050167  RH  079%=      5-min Rain = 0
KBR1 040213Z 36024KT 20/17 A3016 RMK A01 T02040168  RH  079%=      5-min Rain = 0
KBR1 040214Z 36022G27KT 20/17 A3016 RMK A01 T02040168  RH  080%=      5-min Rain = 0
KBR1 040215Z 36020G26KT 20/17 A3016 RMK A01 T02030169  RH  080%=      5-min Rain = 0
KBR1 040216Z 00026KT 20/17 A3016 RMK A01 T02030168  RH  080%=      5-min Rain = 0
KBR1 040217Z 36021KT 20/17 A3016 RMK A01 T02030170  RH  081%=      5-min Rain = 0
KBR1 040218Z 00024KT 20/17 A3016 RMK A01 T02020169  RH  081%=      5-min Rain = 0
KBR1 040219Z 00025G31KT 20/17 A3015 RMK A01 T02020169  RH  081%=      5-min Rain = 0
KBR1 040220Z 01025G31KT 20/17 A3015 RMK A01 T02020169  RH  081%=      5-min Rain = 0
KBR1 040221Z 01025G30KT 20/17 A3015 RMK A01 T02010170  RH  082%=      5-min Rain = 0
KBR1 040222Z 01022KT 20/17 A3015 RMK A01 T02010171  RH  083%=      5-min Rain = 0
KBR1 040223Z 01023KT 20/17 A3015 RMK A01 T02000171  RH  083%=      5-min Rain = 0
KBR1 040224Z 01023KT 20/17 A3015 RMK A01 T02000170  RH  083%=      5-min Rain = 0
KBR1 040225Z 01023KT 20/17 A3015 RMK A01 T02000170  RH  083%=      5-min Rain = 0
KBR1 040226Z 01022KT 20/17 A3015 RMK A01 T01990169  RH  083%=      5-min Rain = 0
KBR1 040227Z 01026KT 20/17 A3015 RMK A01 T01990169  RH  083%=      5-min Rain = 0
KBR1 040228Z 01023G29KT 20/17 A3015 RMK A01 T01990167  RH  082%=      5-min Rain = 0
KBR1 040229Z 01025KT 20/17 A3015 RMK A01 T01990168  RH  082%=      5-min Rain = 0
KBR1 040230Z 01025KT 20/17 A3016 RMK A01 T01990168  RH  082%=      5-min Rain = 0
KBR1 040231Z 01023KT 20/17 A3016 RMK A01 T01990167  RH  082%=      5-min Rain = 0
KBR1 040232Z 02023KT 20/17 A3016 RMK A01 T01980168  RH  083%=      5-min Rain = 0
KBR1 040233Z 01023KT 20/17 A3016 RMK A01 T01980169  RH  084%=      5-min Rain = 0
KBR1 040234Z 01022KT 20/17 A3016 RMK A01 T01970170  RH  084%=      5-min Rain = 0
KBR1 040235Z 01021KT 20/17 A3016 RMK A01 T01960170  RH  085%=      5-min Rain = 0
KBR1 040236Z 01024KT 20/17 A3016 RMK A01 T01960170  RH  085%=      5-min Rain = 0
KBR1 040237Z 01027KT 20/17 A3015 RMK A01 T01960169  RH  085%=      5-min Rain = 0
KBR1 040238Z 01025G31KT 20/17 A3015 RMK A01 T01960168  RH  084%=      5-min Rain = 0
KBR1 040239Z 01026G31KT 20/17 A3015 RMK A01 T01960168  RH  084%=      5-min Rain = 0
KBR1 040240Z 01027KT 20/17 A3015 RMK A01 T01970168  RH  083%=      5-min Rain = 0
KBR1 040241Z 01025G31KT 20/17 A3015 RMK A01 T01960167  RH  083%=      5-min Rain = 0
KBR1 040242Z 01028KT 20/17 A3015 RMK A01 T01960167  RH  083%=      5-min Rain = 0
KBR1 040243Z 01027KT 20/17 A3014 RMK A01 T01960167  RH  083%=      5-min Rain = 0
KBR1 040244Z 01028KT 20/17 A3014 RMK A01 T01960167  RH  083%=      5-min Rain = 0
KBR1 040245Z 01026G31KT 20/17 A3015 RMK A01 T01960167  RH  083%=      5-min Rain = 0
KBR1 040246Z 01026G31KT 20/17 A3015 RMK A01 T01960168  RH  083%=      5-min Rain = 0
KBR1 040247Z 01023KT 20/17 A3014 RMK A01 T01960168  RH  084%=      5-min Rain = 0
KBR1 040248Z 01025G30KT 20/17 A3015 RMK A01 T01950169  RH  084%=      5-min Rain = 0
KBR1 040249Z 01024KT 20/17 A3015 RMK A01 T01950168  RH  084%=      5-min Rain = 0
KBR1 040250Z 01025KT 20/17 A3015 RMK A01 T01950168  RH  084%=      5-min Rain = 0
KBR1 040251Z 01024KT 20/17 A3015 RMK A01 T01950168  RH  085%=      5-min Rain = 0
KBR1 040252Z 01027KT 20/17 A3014 RMK A01 T01950167  RH  084%=      5-min Rain = 0
KBR1 040253Z 01028KT 20/17 A3014 RMK A01 T01960166  RH  083%=      5-min Rain = 0
KBR1 040254Z 01026KT 20/17 A3014 RMK A01 T01960166  RH  082%=      5-min Rain = 0
KBR1 040255Z 01027G32KT 20/17 A3014 RMK A01 T01960166  RH  083%=      5-min Rain = 0
KBR1 040256Z 01024G30KT 20/17 A3014 RMK A01 T01960166  RH  082%=      5-min Rain = 0
KBR1 040257Z 01027KT 20/17 A3014 RMK A01 T01970165  RH  082%=      5-min Rain = 0
KBR1 040258Z 01024KT 20/16 A3014 RMK A01 T01970164  RH  081%=      5-min Rain = 0
KBR1 040259Z 01024KT 20/16 A3014 RMK A01 T01970164  RH  081%=      5-min Rain = 0
KBR1 040300Z 01021G26KT 20/17 A3014 RMK A01 T01970165  RH  081%=      5-min Rain = 0
KBR1 040301Z 01025KT 20/16 A3014 RMK A01 T01970164  RH  081%=      5-min Rain = 0
KBR1 040302Z 01026KT 20/16 A3014 RMK A01 T01980162  RH  080%=      5-min Rain = 0
KBR1 040303Z 01026KT 20/16 A3013 RMK A01 T01990162  RH  079%=      5-min Rain = 0
KBR1 040304Z 01026G31KT 20/16 A3013 RMK A01 T01990162  RH  079%=      5-min Rain = 0
KBR1 040305Z 01023KT 20/16 A3013 RMK A01 T01990162  RH  079%=      5-min Rain = 0
KBR1 040306Z 01023KT 20/16 A3013 RMK A01 T01990162  RH  079%=      5-min Rain = 0
KBR1 040307Z 01023G28KT 20/16 A3013 RMK A01 T01990161  RH  079%=      5-min Rain = 0
KBR1 040308Z 02024G29KT 20/16 A3013 RMK A01 T02000161  RH  078%=      5-min Rain = 0
KBR1 040309Z 02023KT 20/16 A3012 RMK A01 T02000161  RH  078%=      5-min Rain = 0
KBR1 040310Z 02024KT 20/16 A3012 RMK A01 T02000160  RH  078%=      5-min Rain = 0
KBR1 040311Z 02023KT 20/16 A3012 RMK A01 T02010160  RH  077%=      5-min Rain = 0
KBR1 040312Z 02022KT 20/16 A3012 RMK A01 T02010160  RH  077%=      5-min Rain = 0
KBR1 040313Z 02021KT 20/16 A3012 RMK A01 T02020160  RH  077%=      5-min Rain = 0
KBR1 040314Z 02020KT 20/16 A3012 RMK A01 T02020160  RH  077%=      5-min Rain = 0
KBR1 040315Z 02021KT 20/16 A3012 RMK A01 T02030159  RH  076%=      5-min Rain = 0
KBR1 040316Z 02019KT 20/16 A3012 RMK A01 T02030159  RH  076%=      5-min Rain = 0
KBR1 040317Z 02019KT 20/16 A3012 RMK A01 T02030159  RH  076%=      5-min Rain = 0
KBR1 040318Z 02019G24KT 20/16 A3012 RMK A01 T02030158  RH  075%=      5-min Rain = 0
KBR1 040319Z 02021KT 20/16 A3011 RMK A01 T02040157  RH  075%=      5-min Rain = 0
KBR1 040320Z 02019KT 21/16 A3011 RMK A01 T02050157  RH  074%=      5-min Rain = 0
KBR1 040321Z 02017KT 21/16 A3012 RMK A01 T02050157  RH  074%=      5-min Rain = 0
KBR1 040322Z 02017KT 21/16 A3012 RMK A01 T02060156  RH  073%=      5-min Rain = 0
KBR1 040323Z 02016G21KT 21/16 A3012 RMK A01 T02070156  RH  073%=      5-min Rain = 0
KBR1 040324Z 02016KT 21/16 A3012 RMK A01 T02080155  RH  072%=      5-min Rain = 0
KBR1 040325Z 03015KT 21/16 A3012 RMK A01 T02080155  RH  072%=      5-min Rain = 0
KBR1 040326Z 03012KT 21/16 A3012 RMK A01 T02080156  RH  072%=      5-min Rain = 0
KBR1 040327Z 03014KT 21/16 A3012 RMK A01 T02080156  RH  072%=      5-min Rain = 0
KBR1 040328Z 02015KT 21/16 A3012 RMK A01 T02090155  RH  071%=      5-min Rain = 0
KBR1 040329Z 02015KT 21/16 A3012 RMK A01 T02090155  RH  071%=      5-min Rain = 0
KBR1 040330Z 02014KT 21/15 A3013 RMK A01 T02090154  RH  071%=      5-min Rain = 0
KBR1 040331Z 02013KT 21/16 A3013 RMK A01 T02090155  RH  071%=      5-min Rain = 0
KBR1 040332Z 02016KT 21/16 A3013 RMK A01 T02090155  RH  071%=      5-min Rain = 0
KBR1 040333Z 01015KT 21/15 A3014 RMK A01 T02090154  RH  071%=      5-min Rain = 0
KBR1 040334Z 01018KT 21/15 A3014 RMK A01 T02100154  RH  071%=      5-min Rain = 0
KBR1 040335Z 01018KT 21/16 A3014 RMK A01 T02100155  RH  071%=      5-min Rain = 0
KBR1 040336Z 02016KT 21/16 A3014 RMK A01 T02090157  RH  072%=      5-min Rain = 0
KBR1 040337Z 02017KT 21/16 A3014 RMK A01 T02080157  RH  073%=      5-min Rain = 0
KBR1 040338Z 02018KT 21/16 A3013 RMK A01 T02070156  RH  072%=      5-min Rain = 0
KBR1 040339Z 02018KT 21/15 A3013 RMK A01 T02080154  RH  071%=      5-min Rain = 0
KBR1 040340Z 02017KT 21/15 A3013 RMK A01 T02090154  RH  071%=      5-min Rain = 0
KBR1 040341Z 03017KT 21/15 A3014 RMK A01 T02100153  RH  070%=      5-min Rain = 0
KBR1 040342Z 02016KT 21/15 A3014 RMK A01 T02100153  RH  070%=      5-min Rain = 0
KBR1 040343Z 01017KT 21/15 A3014 RMK A01 T02110152  RH  069%=      5-min Rain = 0
KBR1 040344Z 01017KT 21/15 A3014 RMK A01 T02110153  RH  069%=      5-min Rain = 0
KBR1 040345Z 01017KT 21/16 A3014 RMK A01 T02110155  RH  070%=      5-min Rain = 0
KBR1 040346Z 01015KT 21/16 A3014 RMK A01 T02100155  RH  071%=      5-min Rain = 0
KBR1 040347Z 01015KT 21/16 A3014 RMK A01 T02090155  RH  071%=      5-min Rain = 0
KBR1 040348Z 01017KT 21/16 A3014 RMK A01 T02090156  RH  071%=      5-min Rain = 0
KBR1 040349Z 02014KT 21/16 A3014 RMK A01 T02090156  RH  071%=      5-min Rain = 0
KBR1 040350Z 02013KT 21/16 A3014 RMK A01 T02090156  RH  072%=      5-min Rain = 0
KBR1 040351Z 02014KT 21/16 A3014 RMK A01 T02090156  RH  072%=      5-min Rain = 0
KBR1 040352Z 02015KT 21/16 A3014 RMK A01 T02090155  RH  071%=      5-min Rain = 0
KBR1 040353Z 02014KT 21/15 A3014 RMK A01 T02090154  RH  071%=      5-min Rain = 0
KBR1 040354Z 02015KT 21/15 A3014 RMK A01 T02100154  RH  071%=      5-min Rain = 0
KBR1 040355Z 02013KT 21/15 A3014 RMK A01 T02100153  RH  070%=      5-min Rain = 0
KBR1 040356Z 02012KT 21/15 A3014 RMK A01 T02100153  RH  070%=      5-min Rain = 0
KBR1 040357Z 02014KT 21/15 A3014 RMK A01 T02110152  RH  069%=      5-min Rain = 0
KBR1 040358Z 02013KT 21/15 A3014 RMK A01 T02110152  RH  069%=      5-min Rain = 0
KBR1 040359Z 02014KT 21/15 A3014 RMK A01 T02120151  RH  068%=      5-min Rain = 0
KBR1 040400Z 01014KT 21/15 A3014 RMK A01 T02120151  RH  068%=      5-min Rain = 0
KBR1 040401Z 01015KT 21/15 A3014 RMK A01 T02130151  RH  068%=      5-min Rain = 0
KBR1 040402Z 01013KT 21/15 A3014 RMK A01 T02130151  RH  068%=      5-min Rain = 0
KBR1 040403Z 01014KT 21/15 A3014 RMK A01 T02130151  RH  067%=      5-min Rain = 0
KBR1 040404Z 01013KT 21/15 A3014 RMK A01 T02140151  RH  067%=      5-min Rain = 0
KBR1 040405Z 01013KT 21/15 A3014 RMK A01 T02140151  RH  067%=      5-min Rain = 0
KBR1 040406Z 00013KT 22/15 A3014 RMK A01 T02150152  RH  067%=      5-min Rain = 0
KBR1 040407Z 00013KT 22/15 A3014 RMK A01 T02150151  RH  067%=      5-min Rain = 0
KBR1 040408Z 00013KT 22/15 A3014 RMK A01 T02150151  RH  067%=      5-min Rain = 0
KBR1 040409Z 00013KT 22/15 A3014 RMK A01 T02150151  RH  067%=      5-min Rain = 0
KBR1 040410Z 01012KT 22/15 A3014 RMK A01 T02150150  RH  067%=      5-min Rain = 0
KBR1 040411Z 01011KT 22/15 A3014 RMK A01 T02150151  RH  067%=      5-min Rain = 0
KBR1 040412Z 00011KT 22/15 A3014 RMK A01 T02150151  RH  067%=      5-min Rain = 0
KBR1 040413Z 00011KT 22/15 A3014 RMK A01 T02160151  RH  066%=      5-min Rain = 0
KBR1 040414Z 01011KT 22/15 A3014 RMK A01 T02160150  RH  066%=      5-min Rain = 0
KBR1 040415Z 00011KT 22/15 A3014 RMK A01 T02160150  RH  066%=      5-min Rain = 0
KBR1 040416Z 00012KT 22/15 A3014 RMK A01 T02160150  RH  066%=      5-min Rain = 0
KBR1 040417Z 01012KT 22/15 A3014 RMK A01 T02170149  RH  065%=      5-min Rain = 0
KBR1 040418Z 00011KT 22/15 A3014 RMK A01 T02170149  RH  065%=      5-min Rain = 0
KBR1 040419Z 01010KT 22/15 A3014 RMK A01 T02180149  RH  065%=      5-min Rain = 0
KBR1 040420Z 01011KT 22/15 A3014 RMK A01 T02180149  RH  065%=      5-min Rain = 0
KBR1 040421Z 01011KT 22/15 A3014 RMK A01 T02180149  RH  065%=      5-min Rain = 0
KBR1 040422Z 01010KT 22/15 A3014 RMK A01 T02190149  RH  065%=      5-min Rain = 0
KBR1 040423Z 01010KT 22/15 A3014 RMK A01 T02190149  RH  064%=      5-min Rain = 0
KBR1 040424Z 01010KT 22/15 A3014 RMK A01 T02190149  RH  064%=      5-min Rain = 0
KBR1 040425Z 01009KT 22/15 A3014 RMK A01 T02190149  RH  064%=      5-min Rain = 0
KBR1 040426Z 01009KT 22/15 A3014 RMK A01 T02200149  RH  064%=      5-min Rain = 0
KBR1 040427Z 01009KT 22/15 A3014 RMK A01 T02200148  RH  064%=      5-min Rain = 0
KBR1 040428Z 01009KT 22/15 A3014 RMK A01 T02200149  RH  064%=      5-min Rain = 0
KBR1 040429Z 01009KT 22/15 A3014 RMK A01 T02200149  RH  064%=      5-min Rain = 0
KBR1 040430Z 00008KT 22/15 A3014 RMK A01 T02200149  RH  064%=      5-min Rain = 0
KBR1 040431Z 01009KT 22/15 A3014 RMK A01 T02210149  RH  064%=      5-min Rain = 0
KBR1 040432Z 01009KT 22/15 A3014 RMK A01 T02210149  RH  064%=      5-min Rain = 0
KBR1 040433Z 01008KT 22/15 A3014 RMK A01 T02200149  RH  064%=      5-min Rain = 0
KBR1 040434Z 00008KT 22/15 A3014 RMK A01 T02210150  RH  064%=      5-min Rain = 0
KBR1 040435Z 00008KT 22/15 A3014 RMK A01 T02210150  RH  064%=      5-min Rain = 0
KBR1 040436Z 00008KT 22/15 A3014 RMK A01 T02200149  RH  064%=      5-min Rain = 0
KBR1 040437Z 00008KT 22/15 A3014 RMK A01 T02200149  RH  064%=      5-min Rain = 0
KBR1 040438Z 00008KT 22/15 A3014 RMK A01 T02210149  RH  064%=      5-min Rain = 0
KBR1 040439Z 36009KT 22/15 A3014 RMK A01 T02210149  RH  064%=      5-min Rain = 0
KBR1 040440Z 36009KT 22/15 A3014 RMK A01 T02200149  RH  064%=      5-min Rain = 0
KBR1 040441Z 35009KT 22/15 A3014 RMK A01 T02210149  RH  064%=      5-min Rain = 0
KBR1 040442Z 35009KT 22/15 A3014 RMK A01 T02200149  RH  064%=      5-min Rain = 0
KBR1 040443Z 35008KT 22/15 A3014 RMK A01 T02200149  RH  064%=      5-min Rain = 0
KBR1 040444Z 34008KT 22/15 A3014 RMK A01 T02200149  RH  064%=      5-min Rain = 0
KBR1 040445Z 33007KT 22/15 A3014 RMK A01 T02210149  RH  064%=      5-min Rain = 0
KBR1 040446Z 32008KT 22/15 A3015 RMK A01 T02200149  RH  064%=      5-min Rain = 0
KBR1 040447Z 32007KT 22/15 A3015 RMK A01 T02210148  RH  064%=      5-min Rain = 0
KBR1 040448Z 32007KT 22/15 A3015 RMK A01 T02210148  RH  063%=      5-min Rain = 0
KBR1 040449Z 32008KT 22/15 A3015 RMK A01 T02210148  RH  063%=      5-min Rain = 0
KBR1 040450Z 32007KT 22/15 A3015 RMK A01 T02220148  RH  063%=      5-min Rain = 0
KBR1 040451Z 32006KT 22/15 A3015 RMK A01 T02220147  RH  063%=      5-min Rain = 0
KBR1 040452Z 31006KT 22/15 A3015 RMK A01 T02220148  RH  063%=      5-min Rain = 0
KBR1 040453Z 32007KT 22/15 A3015 RMK A01 T02220148  RH  063%=      5-min Rain = 0
KBR1 040454Z 32007KT 22/15 A3015 RMK A01 T02220148  RH  063%=      5-min Rain = 0
KBR1 040455Z 32005KT 22/15 A3015 RMK A01 T02220147  RH  063%=      5-min Rain = 0
KBR1 040456Z 33005KT 22/15 A3015 RMK A01 T02220147  RH  063%=      5-min Rain = 0
KBR1 040457Z 33005KT 22/15 A3015 RMK A01 T02220147  RH  062%=      5-min Rain = 0
KBR1 040458Z 34005KT 22/15 A3015 RMK A01 T02220147  RH  062%=      5-min Rain = 0
KBR1 040459Z 34005KT 22/15 A3015 RMK A01 T02220147  RH  062%=      5-min Rain = 0

Page generated in 0.1301 seconds.